• Join FlightAware (Why Join?)
  • Login
  • US Flag 
02:26AM EDT


 

Airport Tracker/Info


-or-


 

Live Flight TrackerFlight Track Log ✈ AFL150 ✈ 22-Oct-2013 ✈ UUEE / SVO - MUHA / HAV

Flight Track Log - Related Links

Times and Time Zones

All times are in EDT time to prevent confusion due to time zone crossing. See the AFL150 flight status page for this flight to view local times or setup timezone preferences in your user account.

Time Position Orientation Groundspeed Altitude Reporting Facility
EDT Latitude Longitude Course Direction KTS MPH feet Rate Location/Type
06:25AM 55.9700 37.4040 255° West 115 132  Level FlightAware
06:26AM 55.9740 37.4310 75° East 174 200 500 2,280 Climbing FlightAware
06:26AM 55.9800 37.4730 76° East 166 191 1,900 2,280 Climbing FlightAware
06:26AM 55.9840 37.4990 75° East 173 199 2,400 1,140 Climbing FlightAware
06:27AM 55.9870 37.5200 76° East 190 219 2,600 1,020 Climbing FlightAware
06:27AM 55.9920 37.5520 74° East 210 242 3,000 960 Climbing FlightAware
06:27AM 55.9960 37.5700 68° East 224 258 3,100 900 Climbing FlightAware
06:27AM 56.0040 37.5840 44° Northeast 237 273 3,300 1,980 Climbing FlightAware
06:28AM 56.0140 37.5940 29° Northeast 242 278 3,700 2,400 Climbing FlightAware
06:28AM 56.0360 37.6040 14° North 248 285 4,500 2,340 Climbing FlightAware
06:28AM 56.0580 37.5940 346° North 259 298 5,300 2,460 Climbing FlightAware
06:28AM 56.0630 37.5880 326° Northwest 262 302 5,500 2,400 Climbing FlightAware
06:28AM 56.0720 37.5730 317° Northwest 267 307 5,900 2,220 Climbing FlightAware
06:29AM 56.0760 37.5640 309° West 268 308 6,100 2,640 Climbing FlightAware
06:29AM 56.0780 37.5540 290° West 271 312 6,300 2,400 Climbing FlightAware
06:29AM 56.0810 37.5310 283° West 275 316 6,700 2,280 Climbing FlightAware
06:29AM 56.0830 37.4870 275° West 278 320 7,500 2,520 Climbing FlightAware
06:29AM 56.0840 37.4530 273° West 277 319 8,200 2,760 Climbing FlightAware
06:30AM 56.0860 37.4180 276° West 277 319 8,900 2,520 Climbing FlightAware
06:30AM 56.0890 37.3610 275° West 281 323 9,900 1,800 Climbing FlightAware
06:31AM 56.0930 37.2760 275° West 307 353 10,700 1,140 Climbing FlightAware
06:31AM 56.0970 37.1820 274° West 341 392 11,300 1,200 Climbing FlightAware
06:32AM 56.1010 37.0800 274° West 364 419 12,100 2,220 Climbing FlightAware
06:32AM 56.1060 36.9740 275° West 355 409 13,900 2,820 Climbing FlightAware
06:33AM 56.1100 36.8730 274° West 353 406 15,400 2,400 Climbing FlightAware
06:34AM 56.1130 36.7750 273° West 357 411 16,700 2,100 Climbing FlightAware
06:34AM 56.1180 36.6670 275° West 363 418 17,900 1,920 Climbing FlightAware
06:35AM 56.1210 36.5600 273° West 367 422 19,000 1,860 Climbing FlightAware
06:35AM 56.1250 36.4530 274° West 371 427 20,100 1,800 Climbing FlightAware
06:36AM 56.1290 36.3470 274° West 375 432 21,100 1,800 Climbing FlightAware
06:36AM 56.1330 36.2380 274° West 377 434 22,200 1,800 Climbing FlightAware
06:37AM 56.1370 36.1270 274° West 380 437 23,200 1,500 Climbing FlightAware
06:38AM 56.1400 36.0170 273° West 386 444 24,000 1,260 Climbing FlightAware
06:38AM 56.1440 35.9030 274° West 392 451 24,700 1,260 Climbing FlightAware
06:39AM 56.1480 35.7890 274° West 396 456 25,500 1,320 Climbing FlightAware
06:39AM 56.1510 35.6740 273° West 400 460 26,300 1,260 Climbing FlightAware
06:40AM 56.1540 35.5580 273° West 403 464 27,000 1,200 Climbing FlightAware
06:41AM 56.1580 35.4410 274° West 406 467 27,700 840 Climbing FlightAware
06:41AM 56.1610 35.3230 273° West 410 472 28,000 840 Climbing FlightAware
06:42AM 56.1710 35.2060 279° West 404 465 28,700 840 Climbing FlightAware
06:42AM 56.1830 35.0930 281° West 412 474 29,000 480 Climbing FlightAware
06:43AM 56.1960 34.9710 281° West 422 486 29,300 480 Climbing FlightAware
06:43AM 56.2090 34.8510 281° West 430 495 29,600 480 Climbing FlightAware
06:44AM 56.2220 34.7300 281° West 430 495 29,900 600 Climbing FlightAware
06:45AM 56.2350 34.6050 281° West 432 497 30,300 840 Climbing FlightAware
06:45AM 56.2480 34.4830 281° West 433 498 30,900 960 Climbing FlightAware
06:46AM 56.2610 34.3590 281° West 433 498 31,500 840 Climbing FlightAware
06:46AM 56.2740 34.2350 281° West 436 502 31,900 780 Climbing FlightAware
06:47AM 56.2870 34.1080 281° West 439 505 32,400 840 Climbing FlightAware
06:48AM 56.2990 33.9850 280° West 437 503 32,900 720 Climbing FlightAware
06:48AM 56.3110 33.8610 280° West 438 504 33,300 720 Climbing FlightAware
06:49AM 56.3240 33.7360 281° West 440 506 33,800 540 Climbing FlightAware
06:49AM 56.3360 33.6070 280° West 439 505 34,000 120 Climbing FlightAware
06:50AM 56.3480 33.4800 280° West 440 506 34,000  Level FlightAware
06:50AM 56.3600 33.3540 280° West 437 503 34,000  Level FlightAware
06:51AM 56.3720 33.2310 280° West 440 506 34,000  Level FlightAware
06:52AM 56.3840 33.1040 280° West 438 504 34,000  Level FlightAware
06:52AM 56.3950 32.9770 279° West 437 503 34,000  Level FlightAware
06:53AM 56.4060 32.8550 279° West 435 501 34,000  Level FlightAware
06:53AM 56.4180 32.7290 280° West 435 501 34,000  Level FlightAware
06:54AM 56.4290 32.6020 279° West 436 502 34,000  Level FlightAware
06:55AM 56.4400 32.4760 279° West 436 502 34,000  Level FlightAware
06:55AM 56.4520 32.3410 279° West 436 502 34,000  Level FlightAware
06:56AM 56.4620 32.2150 278° West 437 503 34,000  Level FlightAware
06:56AM 56.4720 32.0900 278° West 436 502 34,000  Level FlightAware
06:57AM 56.4810 31.9790 278° West 436 502 34,000  Level FlightAware
06:58AM 56.4890 31.8680 277° West 436 502 34,000  Level FlightAware
06:58AM 56.4980 31.7580 278° West 436 502 34,000  Level FlightAware
06:59AM 56.5070 31.6470 278° West 436 502 34,000  Level FlightAware
06:59AM 56.5150 31.5330 277° West 436 502 34,000  Level FlightAware
07:00AM 56.4380 32.4930 98° East 34,000  Level FlightAware
07:00AM 56.5320 31.3590 279° West 431 496 34,000  Level FlightAware
07:01AM 56.5480 31.2140 281° West 426 490 34,000  Level FlightAware
07:01AM 56.4190 32.7080 98° East 34,000  Level FlightAware
07:02AM 56.5480 31.2140 280° West 423 487 34,000  Level FlightAware
07:02AM 56.6320 30.9030 296° West 423 487 34,000  Level FlightAware
07:03AM 56.6690 30.8210 309° West 421 484 34,000  Level FlightAware
07:03AM 56.7120 30.7300 311° West 421 484 34,000  Level FlightAware
07:04AM 56.7550 30.6190 305° West 423 487 34,000  Level FlightAware
07:04AM 56.7910 30.5250 305° West 423 487 34,000  Level FlightAware
07:05AM 56.8240 30.4350 304° West 422 486 34,000  Level FlightAware
07:06AM 56.8670 30.3200 304° West 419 482 34,000  Level FlightAware
07:06AM 56.9090 30.2050 304° West 417 480 34,000  Level FlightAware
07:07AM 56.9470 30.1020 304° West 415 478 34,000  Level FlightAware
07:07AM 56.9800 30.0110 304° West 413 475 34,000  Level FlightAware
07:08AM 57.0140 29.9160 303° West 412 474 34,000  Level FlightAware
07:09AM 57.0560 29.8020 304° West 411 473 34,000  Level FlightAware
07:09AM 57.0950 29.6930 303° West 411 473 34,000  Level FlightAware
07:10AM 57.1310 29.5920 303° West 409 471 34,000  Level FlightAware
07:10AM 57.1590 29.5150 304° West 407 468 34,000  Level FlightAware
07:11AM 57.1970 29.4070 303° West 402 463 34,000  Level FlightAware
07:11AM 57.2390 29.2890 303° West 400 460 34,000  Level FlightAware
07:12AM 57.2680 29.2060 303° West 397 457 34,000  Level FlightAware
07:13AM 57.2990 29.1170 303° West 396 456 34,000  Level FlightAware
07:13AM 57.3410 28.9980 303° West 394 453 34,000  Level FlightAware
07:14AM 57.3770 28.8950 303° West 392 451 34,000  Level FlightAware
07:14AM 57.4070 28.8100 303° West 392 451 34,000  Level FlightAware
07:15AM 57.4390 28.7150 302° West 391 450 34,000  Level FlightAware
07:16AM 57.4790 28.6010 303° West 389 448 34,000  Level FlightAware
07:16AM 57.5070 28.5180 302° West 389 448 34,000  Level FlightAware
07:17AM 57.5410 28.4190 303° West 386 444 34,000  Level FlightAware
07:17AM 57.5790 28.3060 302° West 382 440 34,000  Level FlightAware
07:18AM 57.6070 28.2250 303° West 378 435 34,000  Level FlightAware
07:18AM 57.6390 28.1300 302° West 375 432 34,000  Level FlightAware
07:19AM 57.6750 28.0220 302° West 372 428 34,000  Level FlightAware
07:20AM 57.7080 27.9260 303° West 371 427 34,000  Level FlightAware
07:20AM 57.7360 27.8410 302° West 371 427 34,000  Level FlightAware
07:21AM 57.7690 27.7430 302° West 370 426 34,000  Level FlightAware
07:21AM 57.7980 27.6530 301° West 371 427 34,000  Level FlightAware
07:22AM 57.8290 27.5600 302° West 373 429 34,000  Level FlightAware
07:23AM 57.8560 27.4360 292° West 384 442 34,000  Level FlightAware
07:23AM 57.8790 27.3230 291° West 385 443 34,000  Level FlightAware
07:24AM 57.8950 27.2420 290° West 387 445 34,000  Level FlightAware
07:24AM 57.9190 27.1250 291° West 389 448 34,000  Level FlightAware
07:25AM 57.9430 27.0050 291° West 392 451 34,000  Level FlightAware
07:25AM 57.9630 26.9040 291° West 393 452 34,000  Level FlightAware
07:26AM 57.9840 26.7960 290° West 394 453 34,000  Level FlightAware
07:27AM 58.0120 26.6580 291° West 394 453 34,000  Level FlightAware
07:27AM 58.0340 26.5430 290° West 391 450 34,000  Level FlightAware
07:28AM 58.0530 26.4440 290° West 389 448 34,000  Level FlightAware
07:28AM 58.0760 26.3250 290° West 389 448 34,000  Level FlightAware
07:29AM 58.0990 26.2080 290° West 389 448 34,000  Level FlightAware
07:29AM 58.1200 26.0990 290° West 388 447 34,000  Level FlightAware
07:30AM 58.1390 25.9970 289° West 387 445 34,000  Level FlightAware
07:31AM 58.1620 25.8790 290° West 386 444 34,000  Level FlightAware
07:31AM 58.1830 25.7640 289° West 386 444 34,000  Level FlightAware
07:32AM 58.2020 25.6620 290° West 387 445 34,000  Level FlightAware
07:32AM 58.2240 25.5460 290° West 386 444 34,000  Level FlightAware
07:33AM 58.2450 25.4320 289° West 386 444 34,000  Level FlightAware
07:34AM 58.2640 25.3320 290° West 384 442 34,000  Level FlightAware
07:34AM 58.2850 25.2140 289° West 382 440 34,000  Level FlightAware
07:35AM 58.3040 25.1120 290° West 382 440 34,000  Level FlightAware
07:35AM 58.3250 24.9930 289° West 383 441 34,000  Level FlightAware
07:36AM 58.3440 24.8870 289° West 384 442 34,000  Level FlightAware
07:36AM 58.3650 24.7730 289° West 384 442 34,000  Level FlightAware
07:37AM 58.3860 24.6550 289° West 382 440 34,000  Level FlightAware
07:38AM 58.4060 24.5400 288° West 381 438 34,000  Level FlightAware
07:38AM 58.4240 24.4330 288° West 382 440 34,000  Level FlightAware
07:39AM 58.4410 24.3250 287° West 384 442 34,000  Level FlightAware
07:39AM 58.4590 24.2010 286° West 384 442 34,000  Level FlightAware
07:40AM 58.4760 24.0860 286° West 384 442 34,000  Level FlightAware
07:41AM 58.4920 23.9850 287° West 385 443 34,000  Level FlightAware
07:41AM 58.5090 23.8660 285° West 386 444 34,000  Level FlightAware
07:42AM 58.5260 23.7510 286° West 385 443 34,000  Level FlightAware
07:42AM 58.5420 23.6440 286° West 386 444 34,000  Level FlightAware
07:43AM 58.5590 23.5240 285° West 387 445 34,000  Level FlightAware
07:43AM 58.5760 23.4060 285° West 386 444 34,000  Level FlightAware
07:44AM 58.5940 23.2840 286° West 386 444 34,000  Level FlightAware
07:45AM 58.6100 23.1690 285° West 388 447 34,000  Level FlightAware
07:45AM 58.6250 23.0630 285° West 388 447 34,000  Level FlightAware
07:46AM 58.6430 22.9380 286° West 389 448 34,000  Level FlightAware
07:46AM 58.6580 22.8320 285° West 390 449 34,000  Level FlightAware
07:47AM 58.6740 22.7160 285° West 391 450 34,000  Level FlightAware
07:48AM 58.6910 22.5890 284° West 390 449 34,000  Level FlightAware
07:48AM 58.7090 22.4630 285° West 391 450 34,000  Level FlightAware
07:49AM 58.7230 22.3560 284° West 392 451 34,000  Level FlightAware
07:49AM 58.7390 22.2340 284° West 393 452 34,000  Level FlightAware
07:50AM 58.7560 22.1120 285° West 395 455 34,000  Level FlightAware
07:50AM 58.7700 22.0030 284° West 394 453 34,000  Level FlightAware
07:51AM 58.7850 21.8870 284° West 392 451 34,000  Level FlightAware
07:52AM 58.8020 21.7600 285° West 393 452 34,000  Level FlightAware
07:52AM 58.8180 21.6360 284° West 394 453 34,000  Level FlightAware
07:53AM 58.8350 21.5020 284° West 396 456 34,000  Level FlightAware
07:53AM 58.8500 21.3850 284° West 396 456 34,000  Level FlightAware
07:54AM 58.8730 21.2540 289° West 395 455 34,000  Level FlightAware
07:55AM 58.8910 21.1480 288° West 397 457 34,000  Level FlightAware
07:55AM 58.9110 21.0300 288° West 396 456 34,000  Level FlightAware
07:56AM 58.9320 20.9040 288° West 394 453 34,000  Level FlightAware
07:56AM 58.9490 20.8030 288° West 393 452 34,000  Level FlightAware
07:57AM 58.9680 20.6840 287° West 392 451 34,000  Level FlightAware
07:58AM 58.9890 20.5580 288° West 389 448 34,000  Level FlightAware
07:58AM 59.0080 20.4370 287° West 389 448 34,000  Level FlightAware
07:59AM 59.0260 20.3290 288° West 389 448 34,000  Level FlightAware
07:59AM 59.0440 20.2150 287° West 390 449 34,000  Level FlightAware
08:00AM 59.0654 20.0769 287° West 390 449 34,000  Level FlightAware ADS-B (YKMB / KRB)
08:01AM 59.0863 19.9435 287° West 390 449 34,000  Level FlightAware ADS-B (YKMB / KRB)
08:01AM 59.1093 19.7958 287° West 390 449 34,000  Level FlightAware ADS-B (YKMB / KRB)
08:02AM 59.1251 19.6931 287° West 390 449 34,000  Level FlightAware ADS-B (YKMB / KRB)
08:03AM 59.1444 19.5673 287° West 390 449 34,000  Level FlightAware ADS-B (YKMB / KRB)
08:03AM 59.1701 19.3976 287° West 388 447 34,000  Level FlightAware ADS-B (YKMB / KRB)
08:04AM 59.1888 19.2734 286° West 387 445 34,000  Level FlightAware ADS-B (YKMB / KRB)
08:05AM 59.2040 19.1716 286° West 387 445 34,000  Level FlightAware ADS-B (YKMB / KRB)
08:05AM 59.2190 19.0705 286° West 387 445 34,000  Level FlightAware ADS-B (YKMB / KRB)
08:06AM 59.2388 18.9363 286° West 386 444 34,000  Level FlightAware ADS-B (YKMB / KRB)
08:06AM 59.2582 18.8039 286° West 386 444 34,000  Level FlightAware ADS-B (YKMB / KRB)
08:07AM 59.2732 18.7009 286° West 384 442 34,000  Level FlightAware ADS-B (YKMB / KRB)
08:07AM 59.2875 18.6015 286° West 383 441 34,000  Level FlightAware ADS-B (YKMB / KRB)
08:08AM 59.3026 18.4960 286° West 383 441 34,000  Level FlightAware ADS-B (YKMB / KRB)
08:09AM 59.3217 18.3621 286° West 384 442 34,000  Level FlightAware ADS-B (YKMB / KRB)
08:09AM 59.3405 18.2292 286° West 383 441 34,000  Level FlightAware ADS-B (YKMB / KRB)
08:10AM 59.3542 18.1312 285° West 383 441 34,000  Level FlightAware ADS-B (YKMB / KRB)
08:10AM 59.3680 18.0324 285° West 383 441 34,000  Level FlightAware ADS-B (YKMB / KRB)
08:11AM 59.3824 17.9283 285° West 383 441 34,000  Level FlightAware ADS-B (YKMB / KRB)
08:11AM 59.4002 17.7982 285° West 384 442 34,000  Level FlightAware ADS-B (YKMB / KRB)
08:12AM 59.4142 17.6959 285° West 385 443 34,000  Level FlightAware ADS-B (YKMB / KRB)
08:13AM 59.4325 17.5601 285° West 386 444 34,000  Level FlightAware ADS-B (YKMB / KRB)
08:13AM 59.4459 17.4600 285° West 386 444 34,000  Level FlightAware ADS-B (YKMB / KRB)
08:14AM 59.4640 17.3247 285° West 385 443 34,000  Level FlightAware ADS-B (YKMB / KRB)
08:14AM 59.4775 17.2222 285° West 385 443 34,000  Level FlightAware ADS-B (YKMB / KRB)
08:15AM 59.4906 17.1226 285° West 385 443 34,000  Level FlightAware ADS-B (YKMB / KRB)
08:15AM 59.5041 17.0194 284° West 386 444 34,000  Level FlightAware ADS-B (YKMB / KRB)
08:16AM 59.5174 16.9164 284° West 387 445 34,000  Level FlightAware ADS-B (YKMB / KRB)
08:16AM 59.5348 16.7812 284° West 388 447 34,000  Level FlightAware ADS-B (YKMB / KRB)
08:17AM 59.5478 16.6793 284° West 386 444 34,000  Level FlightAware ADS-B (YKMB / KRB)
08:17AM 59.5607 16.5771 284° West 387 445 34,000  Level FlightAware ADS-B (YKMB / KRB)
08:18AM 59.5738 16.4735 284° West 386 444 34,000  Level FlightAware ADS-B (YKMB / KRB)
08:18AM 59.5869 16.3685 284° West 385 443 34,000  Level FlightAware ADS-B (YKMB / KRB)
08:19AM 59.5996 16.2656 284° West 385 443 34,000  Level FlightAware ADS-B (YKMB / KRB)
08:19AM 59.6125 16.1606 284° West 385 443 34,000  Level FlightAware ADS-B (YKMB / KRB)
08:20AM 59.6291 16.0265 284° West 384 442 34,000  Level FlightAware ADS-B (YKMB / KRB)
08:21AM 59.6417 15.9214 283° West 385 443 34,000  Level FlightAware ADS-B (YKMB / KRB)
08:21AM 59.6578 15.7869 283° West 385 443 34,000  Level FlightAware ADS-B (YKMB / KRB)
08:22AM 59.6699 15.6844 283° West 385 443 34,000  Level FlightAware ADS-B (YKMB / KRB)
08:22AM 59.6822 15.5810 283° West 385 443 34,000  Level FlightAware ADS-B (YKMB / KRB)
08:23AM 59.6990 15.4360 283° West 387 445 34,000  Level FlightAware
08:24AM 59.7120 15.3240 283° West 387 445 34,000  Level FlightAware
08:24AM 59.7280 15.1880 283° West 388 447 34,000  Level FlightAware
08:25AM 59.7410 15.0700 282° West 389 448 34,000  Level FlightAware
08:25AM 59.7550 14.9530 283° West 390 449 34,000  Level FlightAware
08:26AM 59.7670 14.8410 282° West 391 450 34,000  Level FlightAware
08:26AM 59.7810 14.7190 283° West 392 451 34,000  Level FlightAware
08:27AM 59.7930 14.6020 282° West 390 449 34,000  Level FlightAware
08:28AM 59.8080 14.4670 283° West 390 449 34,000  Level FlightAware
08:28AM 59.8190 14.3650 282° West 391 450 34,000  Level FlightAware
08:29AM 59.8350 14.2160 282° West 389 448 34,000  Level FlightAware
08:29AM 59.8480 14.0980 282° West 389 448 34,000  Level FlightAware
08:30AM 59.8600 13.9830 282° West 390 449 34,000  Level FlightAware
08:30AM 59.8730 13.8550 281° West 391 450 34,000  Level FlightAware
08:31AM 59.8900 13.7350 286° West 392 451 34,000  Level FlightAware
08:32AM 59.9070 13.6240 287° West 392 451 34,000  Level FlightAware
08:32AM 59.9280 13.4860 287° West 393 452 34,000  Level FlightAware
08:33AM 59.9450 13.3750 287° West 395 455 34,000  Level FlightAware
08:33AM 59.9650 13.2470 287° West 396 456 34,000  Level FlightAware
08:34AM 59.9810 13.1330 286° West 396 456 34,000  Level FlightAware
08:35AM 59.9990 13.0130 287° West 396 456 34,000  Level FlightAware
08:35AM 60.0180 12.8840 286° West 395 455 34,000  Level FlightAware
08:36AM 60.0360 12.7610 286° West 398 458 34,000  Level FlightAware
08:36AM 60.0540 12.6370 286° West 398 458 34,000  Level FlightAware
08:37AM 60.0740 12.5000 286° West 398 458 34,000  Level FlightAware
08:37AM 60.0880 12.3960 285° West 397 457 34,000 300 Level FlightAware
08:38AM 60.1070 12.2630 286° West 400 460 34,400 960 Climbing FlightAware
08:39AM 60.1250 12.1350 286° West 393 452 35,200 1,080 Climbing FlightAware
08:39AM 60.1410 12.0220 286° West 391 450 35,700 660 Climbing FlightAware
08:40AM 60.1590 11.8890 285° West 392 451 36,000 240 Climbing FlightAware
08:40AM 60.1750 11.7760 286° West 396 456 36,000  Level FlightAware
08:41AM 60.1920 11.6510 285° West 397 457 36,000  Level FlightAware
08:42AM 60.2090 11.5220 285° West 396 456 36,000  Level FlightAware
08:42AM 60.2240 11.4090 285° West 395 455 36,000  Level FlightAware
08:43AM 60.2420 11.2710 285° West 393 452 36,000  Level FlightAware
08:43AM 60.2580 11.1530 285° West 392 451 36,000  Level FlightAware
08:44AM 60.2730 11.0410 285° West 391 450 36,000  Level FlightAware
08:44AM 60.2890 10.9150 284° West 391 450 36,000  Level FlightAware
08:45AM 60.3060 10.7800 284° West 391 450 36,000  Level FlightAware
08:46AM 60.3200 10.6760 285° West 391 450 36,000  Level FlightAware
08:46AM 60.3360 10.5420 284° West 390 449 36,000  Level FlightAware
08:47AM 60.3530 10.4130 285° West 392 451 36,000  Level FlightAware
08:47AM 60.3680 10.2870 284° West 393 452 36,000  Level FlightAware
08:48AM 60.3820 10.1730 284° West 393 452 36,000  Level FlightAware
08:49AM 60.3990 10.0360 284° West 395 455 36,000  Level FlightAware
08:49AM 60.4130 9.9210 284° West 395 455 36,000  Level FlightAware
08:50AM 60.4270 9.8040 284° West 394 453 36,000  Level FlightAware
08:50AM 60.4440 9.6650 284° West 393 452 36,000  Level FlightAware
08:51AM 60.4590 9.5340 283° West 394 453 36,000  Level FlightAware
08:51AM 60.4710 9.4280 283° West 394 453 36,000  Level FlightAware
08:52AM 60.4870 9.2910 283° West 395 455 36,000  Level FlightAware
08:53AM 60.5000 9.1810 284° West 396 456 36,000  Level FlightAware
08:53AM 60.5170 9.0350 283° West 397 457 36,000  Level FlightAware
08:54AM 60.5300 8.9160 283° West 397 457 36,000  Level FlightAware
08:54AM 60.5450 8.7810 283° West 397 457 36,000  Level FlightAware
08:55AM 60.5600 8.6470 283° West 398 458 36,000  Level FlightAware
08:56AM 60.5720 8.5340 282° West 398 458 36,000  Level FlightAware
08:56AM 60.5870 8.3950 282° West 397 457 36,000  Level FlightAware
08:57AM 60.6010 8.2680 283° West 398 458 36,000  Level FlightAware
08:57AM 60.6140 8.1440 282° West 399 459 36,000  Level FlightAware
08:58AM 60.6270 8.0180 282° West 399 459 36,000  Level FlightAware
08:58AM 60.6400 7.9000 283° West 400 460 36,000  Level FlightAware
08:59AM 60.6550 7.7530 282° West 400 460 36,000  Level FlightAware
08:59AM 60.6587 7.7162 282° West 400 460 36,000  Level FlightAware ADS-B (EGBP)
09:00AM 60.6710 7.5956 282° West 400 460 36,000  Level FlightAware ADS-B (EGBP)
09:00AM 60.6850 7.4573 282° West 400 460 36,000  Level FlightAware ADS-B (EGBP)
09:01AM 60.6968 7.3387 282° West 399 459 36,000  Level FlightAware ADS-B (EGBP)
09:01AM 60.7075 7.2316 282° West 400 460 36,000  Level FlightAware ADS-B (EGBP)
09:02AM 60.7190 7.1190 282° West 399 459 36,000  Level FlightAware
09:02AM 60.7225 7.0790 280° West 399 459 36,000  Level FlightAware ADS-B (EGBP)
09:03AM 60.7329 6.9689 281° West 399 459 36,000  Level FlightAware ADS-B (EGBP)
09:03AM 60.7430 6.8580 281° West 400 460 36,000  Level FlightAware
09:03AM 60.7468 6.8231 283° West 400 460 36,000  Level FlightAware ADS-B (EGBP)
09:04AM 60.7609 6.6752 281° West 401 461 36,000  Level FlightAware ADS-B (EGBP)
09:04AM 60.7712 6.5651 281° West 401 461 36,000  Level FlightAware ADS-B (EGBP)
09:05AM 60.7818 6.4510 281° West 401 461 36,000  Level FlightAware ADS-B (EGBP)
09:05AM 60.7920 6.3430 281° West 400 460 36,000  Level FlightAware
09:06AM 60.7953 6.3037 280° West 400 460 36,000  Level FlightAware ADS-B (EGBP)
09:06AM 60.8055 6.1913 281° West 399 459 36,000  Level FlightAware ADS-B (EGBP)
09:07AM 60.8160 6.0720 280° West 398 458 36,000  Level FlightAware
09:07AM 60.8181 6.0516 282° West 398 458 36,000  Level FlightAware ADS-B (EGBP)
09:07AM 60.8279 5.9406 280° West 397 457 36,000  Level FlightAware ADS-B (EGBP)
09:08AM 60.8383 5.8232 280° West 397 457 36,000  Level FlightAware ADS-B (EGBP)
09:08AM 60.8481 5.7099 280° West 395 455 36,000  Level FlightAware ADS-B (EGBP)
09:09AM 60.8600 5.5750 280° West 395 455 36,000  Level FlightAware
09:10AM 60.8710 5.4410 280° West 396 456 36,000  Level FlightAware
09:10AM 60.8820 5.3050 279° West 396 456 36,000  Level FlightAware
09:11AM 60.8940 5.1580 280° West 397 457 36,000  Level FlightAware
09:11AM 60.9060 5.0150 280° West 398 458 36,000  Level FlightAware
09:12AM 60.9250 4.7820 280° West 400 460 36,000  Level FlightAware
09:13AM 60.9360 4.6430 279° West 401 461 36,000  Level FlightAware
09:14AM 60.9440 4.5310 278° West 401 461 36,000  Level FlightAware
09:14AM 60.9560 4.3820 279° West 402 463 36,000  Level FlightAware
09:15AM 60.9650 4.2600 279° West 403 464 36,000  Level FlightAware
09:15AM 60.9750 4.1280 279° West 403 464 36,000  Level FlightAware
09:16AM 60.9850 3.9880 278° West 402 463 36,000  Level FlightAware
09:17AM 60.9940 3.8590 278° West 401 461 36,000  Level FlightAware
09:17AM 61.0030 3.7370 279° West 400 460 36,000  Level FlightAware
09:18AM 61.0120 3.6110 278° West 401 461 36,000  Level FlightAware
09:18AM 61.0230 3.4580 279° West 401 461 36,000  Level FlightAware
09:19AM 61.0310 3.3270 277° West 402 463 36,000  Level FlightAware
09:19AM 61.0400 3.2050 279° West 402 463 36,000  Level FlightAware
09:20AM 61.0480 3.0720 277° West 402 463 36,000 120 Level FlightAware
09:21AM 61.0580 2.9320 278° West 405 466 36,200 540 Climbing FlightAware
09:21AM 61.0660 2.7990 277° West 405 466 36,700 420 Climbing FlightAware
09:22AM 61.0740 2.6680 277° West 412 474 36,700 240 Level FlightAware
09:22AM 61.0830 2.5200 277° West 417 480 37,000 240 Climbing FlightAware
09:23AM 61.0920 2.3800 278° West 423 487 37,000  Level FlightAware
09:24AM 61.1000 2.2490 277° West 423 487 37,000  Level FlightAware
09:24AM 61.1090 2.1010 277° West 424 488 37,000  Level FlightAware
09:25AM 61.1160 1.9720 276° West 422 486 37,000  Level FlightAware
09:25AM 61.1240 1.8330 277° West 421 484 37,000  Level FlightAware
09:26AM 61.1320 1.6890 277° West 420 483 37,000  Level FlightAware
09:26AM 61.1400 1.5470 277° West 421 484 37,000  Level FlightAware
09:27AM 61.1480 1.3960 276° West 422 486 37,000  Level FlightAware
09:28AM 61.1540 1.2830 276° West 422 486 37,000  Level FlightAware
09:28AM 61.1610 1.1360 276° West 422 486 37,000  Level FlightAware
09:29AM 61.1690 0.9860 276° West 424 488 37,000  Level FlightAware
09:29AM 61.1750 0.8550 275° West 424 488 37,000  Level FlightAware
09:30AM 61.1820 0.7130 276° West 425 489 37,000  Level FlightAware
09:31AM 61.1900 0.5610 276° West 422 486 37,000  Level FlightAware
09:31AM 61.1960 0.4200 275° West 422 486 37,000  Level FlightAware
09:32AM 61.2020 0.2880 275° West 421 484 37,000  Level FlightAware
09:32AM 61.2090 0.1460 276° West 424 488 37,000  Level FlightAware
09:33AM 61.2230 -0.0020 281° West 432 497 37,000  Level FlightAware
09:33AM 61.2450 -0.1380 289° West 441 507 37,000  Level FlightAware
09:34AM 61.2740 -0.2670 295° West 447 514 37,000  Level FlightAware
09:35AM 61.3040 -0.3990 295° West 450 518 37,000  Level FlightAware
09:35AM 61.3360 -0.5420 295° West 451 519 37,000  Level FlightAware
09:36AM 61.3730 -0.7070 295° West 452 520 37,000  Level FlightAware
09:37AM 61.4050 -0.8520 295° West 454 522 37,000  Level FlightAware
09:37AM 61.4360 -0.9960 294° West 453 521 37,000  Level FlightAware
09:38AM 61.4630 -1.1190 295° West 452 520 37,000  Level FlightAware
09:38AM 61.4940 -1.2680 294° West 454 522 37,000  Level FlightAware
09:39AM 61.5250 -1.4130 294° West 458 527 37,000  Level FlightAware
09:40AM 61.5590 -1.5720 294° West 459 528 37,000  Level FlightAware
09:40AM 61.5900 -1.7190 294° West 458 527 37,000  Level FlightAware
09:41AM 61.6210 -1.8690 294° West 458 527 37,000  Level FlightAware
09:41AM 61.6470 -1.9950 294° West 457 526 37,000  Level FlightAware
09:42AM 61.6760 -2.1340 294° West 458 527 37,000  Level FlightAware
09:42AM 61.7100 -2.2990 294° West 457 526 37,000  Level FlightAware
09:43AM 61.7360 -2.4290 293° West 457 526 37,000  Level FlightAware
09:44AM 61.7650 -2.5710 293° West 456 525 37,000  Level FlightAware
09:44AM 61.7950 -2.7250 292° West 455 524 37,000  Level FlightAware
09:45AM 61.8150 -2.8240 293° West 455 524 37,000  Level FlightAware
09:45AM 61.8430 -2.9650 293° West 455 524 37,000  Level FlightAware
09:46AM 61.8680 -3.0910 293° West 457 526 37,000  Level FlightAware
09:46AM 61.9030 -3.2720 292° West 455 524 37,000  Level FlightAware
09:47AM 61.9240 -3.3800 292° West 460 529 37,000  Level FlightAware
09:48AM 61.9570 -3.5520 292° West 462 532 37,000  Level FlightAware
09:48AM 61.9850 -3.7010 292° West 463 533 37,000  Level FlightAware
09:49AM 62.0110 -3.8370 292° West 462 532 37,000  Level FlightAware
09:49AM 62.0440 -4.0120 292° West 463 533 37,000  Level FlightAware
09:50AM 62.0700 -4.1520 292° West 463 533 37,000  Level FlightAware
09:51AM 62.1080 -4.3630 291° West 462 532 37,000  Level FlightAware
09:51AM 62.1300 -4.4950 290° West 462 532 37,000  Level FlightAware
09:52AM 62.1530 -4.6300 290° West 462 532 37,000  Level FlightAware
09:53AM 62.1750 -4.7610 290° West 462 532 37,000  Level FlightAware
09:53AM 62.1980 -4.8930 291° West 462 532 37,000  Level FlightAware
09:54AM 62.2210 -5.0320 290° West 462 532 37,000  Level FlightAware
09:54AM 62.2440 -5.1640 291° West 462 532 37,000  Level FlightAware
09:55AM 62.2660 -5.2960 290° West 462 532 37,000  Level FlightAware
09:56AM 62.3340 -5.6280 294° West 470 541 37,000  Level FlightAware
09:56AM 62.3600 -5.7800 290° West 471 542 37,000  Level FlightAware
09:57AM 62.3810 -5.9070 290° West 471 542 37,000  Level FlightAware
09:57AM 62.4040 -6.0420 290° West 471 542 37,000  Level FlightAware
09:58AM 62.4380 -6.2460 290° West 467 537 37,000  Level FlightAware
09:59AM 62.4730 -6.4570 290° West 463 533 37,000  Level FlightAware
10:00AM 62.4940 -6.5960 288° West 463 533 37,000  Level FlightAware
10:00AM 62.5330 -6.8230 291° West 463 533 37,000  Level FlightAware
10:01AM 62.5500 -6.9330 289° West 461 531 37,000  Level FlightAware
10:02AM 62.5890 -7.1790 289° West 464 534 37,000  Level FlightAware
10:02AM 62.6160 -7.3480 289° West 465 535 37,000  Level FlightAware
10:03AM 62.6360 -7.4770 289° West 468 539 37,000  Level FlightAware
10:03AM 62.6600 -7.6310 289° West 467 537 37,000  Level FlightAware
10:04AM 62.6810 -7.7750 288° West 467 537 37,000  Level FlightAware
10:05AM 62.7020 -7.9120 289° West 467 537 37,000  Level FlightAware
10:05AM 62.7390 -8.1550 288° West 468 539 37,000  Level FlightAware
10:06AM 62.7660 -8.3400 288° West 468 539 37,000  Level FlightAware
10:07AM 62.7850 -8.4780 287° West 468 539 37,000  Level FlightAware
10:07AM 62.8040 -8.6170 287° West 468 539 37,000  Level FlightAware
10:08AM 62.8240 -8.7590 287° West 468 539 37,000  Level FlightAware
10:08AM 62.8640 -9.0100 289° West 466 536 37,000  Level FlightAware
10:09AM 62.8900 -9.1940 287° West 465 535 37,000  Level FlightAware
10:10AM 62.9130 -9.3580 287° West 463 533 37,000  Level FlightAware
10:10AM 62.9310 -9.4900 287° West 461 531 37,000  Level FlightAware
10:11AM 62.9670 -9.7580 287° West 461 531 37,000  Level FlightAware
10:12AM 62.9890 -9.9120 288° West 459 528 37,000  Level FlightAware
10:12AM 63.0100 -10.0750 286° West 459 528 37,000  Level FlightAware
10:13AM 63.0300 -10.2160 287° West 460 529 37,000  Level FlightAware
10:14AM 63.0520 -10.3790 287° West 460 529 37,000  Level FlightAware
10:14AM 63.0750 -10.5440 287° West 461 531 37,000  Level FlightAware
10:15AM 63.0970 -10.7100 286° West 461 531 37,000  Level FlightAware
10:15AM 63.1170 -10.8570 287° West 461 531 37,000  Level FlightAware
10:16AM 63.1380 -11.0160 286° West 461 531 37,000  Level FlightAware
10:16AM 63.1560 -11.1590 286° West 462 532 37,000  Level FlightAware
10:17AM 63.1800 -11.3450 286° West 464 534 37,000  Level FlightAware
10:18AM 63.1990 -11.4920 286° West 464 534 37,000  Level FlightAware
10:18AM 63.2200 -11.6530 286° West 465 535 37,000  Level FlightAware
10:19AM 63.2400 -11.8170 285° West 466 536 37,000  Level FlightAware
10:19AM 63.2590 -11.9670 286° West 467 537 37,000  Level FlightAware
10:20AM 63.2780 -12.1240 285° West 468 539 37,000  Level FlightAware
10:20AM 63.2980 -12.2900 285° West 468 539 37,000  Level FlightAware
10:21AM 63.3190 -12.4680 285° West 466 536 37,000  Level FlightAware
10:22AM 63.3360 -12.6040 286° West 465 535 37,000  Level FlightAware
10:22AM 63.3570 -12.7820 285° West 463 533 37,000  Level FlightAware
10:23AM 63.3750 -12.9420 284° West 462 532 37,000  Level FlightAware
10:23AM 63.3940 -13.1100 284° West 464 534 37,000  Level FlightAware
10:24AM 63.4120 -13.2620 285° West 465 535 37,000  Level FlightAware
10:25AM 63.4310 -13.4350 284° West 465 535 37,000  Level FlightAware
10:25AM 63.4500 -13.6050 284° West 465 535 37,000  Level FlightAware
10:26AM 63.4650 -13.7440 284° West 464 534 37,000  Level FlightAware
10:26AM 63.4850 -13.9290 284° West 463 533 37,000  Level FlightAware
10:27AM 63.5010 -14.0770 284° West 464 534 37,000  Level FlightAware
10:28AM 63.5190 -14.2440 284° West 466 536 37,000  Level FlightAware
10:28AM 63.5370 -14.4150 283° West 467 537 37,000  Level FlightAware
10:29AM 63.5540 -14.5770 283° West 466 536 37,000  Level FlightAware
10:29AM 63.5710 -14.7460 283° West 465 535 37,000  Level FlightAware
10:30AM 63.5880 -14.9150 283° West 465 535 37,000  Level FlightAware
10:30AM 63.6040 -15.0740 283° West 465 535 37,000  Level FlightAware
10:31AM 63.6190 -15.2320 282° West 464 534 37,000  Level FlightAware
10:32AM 63.6350 -15.3930 283° West 465 535 37,000  Level FlightAware
10:32AM 63.6510 -15.5630 282° West 464 534 37,000  Level FlightAware
10:33AM 63.6660 -15.7230 282° West 465 535 37,000  Level FlightAware
10:33AM 63.6820 -15.8880 282° West 465 535 37,000  Level FlightAware
10:34AM 63.6970 -16.0600 281° West 465 535 37,000  Level FlightAware
10:35AM 63.7120 -16.2220 282° West 465 535 37,000  Level FlightAware
10:35AM 63.7280 -16.3940 282° West 465 535 37,000  Level FlightAware
10:36AM 63.7430 -16.5640 281° West 463 533 37,000  Level FlightAware
10:36AM 63.7570 -16.7270 281° West 462 532 37,000  Level FlightAware
10:37AM 63.7710 -16.8940 281° West 462 532 37,000  Level FlightAware
10:37AM 63.7850 -17.0560 281° West 462 532 37,000  Level FlightAware
10:38AM 63.7980 -17.2190 280° West 462 532 37,000  Level FlightAware
10:39AM 63.8110 -17.3760 281° West 464 534 37,000  Level FlightAware
10:39AM 63.8250 -17.5520 280° West 466 536 37,000  Level FlightAware
10:40AM 63.8390 -17.7240 281° West 466 536 37,000  Level FlightAware
10:40AM 63.8520 -17.8870 280° West 466 536 37,000  Level FlightAware
10:41AM 63.8650 -18.0600 280° West 466 536 37,000  Level FlightAware
10:41AM 63.8770 -18.2140 280° West 466 536 37,000  Level FlightAware
10:42AM 63.8890 -18.3760 280° West 467 537 37,000  Level FlightAware
10:43AM 63.9040 -18.5780 280° West 467 537 37,000  Level FlightAware
10:43AM 63.9150 -18.7340 279° West 466 536 37,000  Level FlightAware
10:44AM 63.9280 -18.9070 280° West 465 535 37,000  Level FlightAware
10:44AM 63.9400 -19.0790 279° West 465 535 37,000  Level FlightAware
10:45AM 63.9500 -19.2310 279° West 465 535 37,000  Level FlightAware
10:46AM 63.9610 -19.4010 278° West 464 534 37,000  Level FlightAware
10:46AM 63.9730 -19.5700 279° West 463 533 37,000  Level FlightAware
10:47AM 63.9840 -19.7450 278° West 463 533 37,000  Level FlightAware
10:47AM 63.9950 -19.9190 278° West 463 533 37,000  Level FlightAware
10:48AM 64.0120 -20.0930 283° West 464 534 37,000  Level FlightAware
10:49AM 64.0330 -20.2370 288° West 464 534 37,000  Level FlightAware
10:49AM 64.0540 -20.3930 287° West 465 535 37,000  Level FlightAware
10:50AM 64.0760 -20.5570 287° West 465 535 37,000  Level FlightAware
10:50AM 64.1020 -20.7480 287° West 465 535 37,000  Level FlightAware
10:51AM 64.1210 -20.8950 287° West 464 534 37,000  Level FlightAware
10:51AM 64.1420 -21.0560 287° West 462 532 37,000  Level FlightAware
10:52AM 64.1650 -21.2340 287° West 461 531 37,000  Level FlightAware
10:53AM 64.1820 -21.3650 287° West 460 529 37,000  Level FlightAware
10:53AM 64.2060 -21.5560 286° West 460 529 37,000  Level FlightAware
10:54AM 64.2240 -21.7000 286° West 459 528 37,000  Level FlightAware
10:54AM 64.2460 -21.8770 286° West 460 529 37,000  Level FlightAware
10:55AM 64.2670 -22.0470 286° West 461 531 37,000  Level FlightAware
10:56AM 64.2870 -22.2060 286° West 461 531 37,000  Level FlightAware
10:56AM 64.3060 -22.3680 285° West 460 529 37,000  Level FlightAware
10:57AM 64.3260 -22.5350 286° West 459 528 37,000  Level FlightAware
10:57AM 64.3470 -22.7170 285° West 454 522 37,000  Level FlightAware
10:58AM 64.3650 -22.8720 285° West 452 520 37,000  Level FlightAware
10:59AM 64.3850 -23.0410 285° West 451 519 37,000  Level FlightAware
10:59AM 64.4020 -23.1910 285° West 450 518 37,000  Level FlightAware
11:00AM 64.4200 -23.3520 285° West 449 517 37,000  Level FlightAware
11:00AM 64.4390 -23.5240 284° West 450 518 37,000  Level FlightAware
11:01AM 64.4560 -23.6730 285° West 450 518 37,000  Level FlightAware
11:01AM 64.4740 -23.8400 284° West 451 519 37,000  Level FlightAware
11:02AM 64.4930 -24.0150 284° West 452 520 37,000  Level FlightAware
11:03AM 64.5100 -24.1760 284° West 453 521 37,000  Level FlightAware
11:03AM 64.5250 -24.3250 283° West 450 518 37,000  Level FlightAware
11:04AM 64.5420 -24.4840 284° West 449 517 37,000  Level FlightAware
11:04AM 64.5610 -24.6720 283° West 449 517 37,000  Level FlightAware
11:05AM 64.5760 -24.8210 283° West 450 518 37,000  Level FlightAware
11:05AM 64.5930 -24.9820 284° West 450 518 37,000  Level FlightAware
11:06AM 64.6090 -25.1510 283° West 451 519 37,000  Level FlightAware
11:07AM 64.6290 -25.3590 283° West 446 513 37,000  Level FlightAware
11:07AM 64.6450 -25.5250 283° West 443 510 37,000  Level FlightAware
11:08AM 64.6600 -25.6750 283° West 442 509 37,000  Level FlightAware
11:09AM 64.6750 -25.8440 282° West 443 510 37,000  Level FlightAware
11:09AM 64.6900 -26.0030 283° West 441 507 37,000  Level FlightAware
11:10AM 64.7050 -26.1610 283° West 439 505 37,000  Level FlightAware
11:10AM 64.7210 -26.3430 282° West 436 502 37,000  Level FlightAware
11:11AM 64.7290 -26.4270 283° West 435 501 37,000  Level FlightAware
11:11AM 64.7450 -26.6150 281° West 432 497 37,000  Level FlightAware
11:12AM 64.7620 -26.8050 282° West 432 497 37,000  Level FlightAware
11:13AM 64.7750 -26.9630 281° West 431 496 37,000  Level FlightAware
11:13AM 64.7890 -27.1300 281° West 432 497 37,000  Level FlightAware
11:14AM 64.7990 -27.2480 281° West 431 496 37,000  Level FlightAware
11:14AM 64.8150 -27.4350 281° West 430 495 37,000  Level FlightAware
11:15AM 64.8280 -27.5970 281° West 430 495 37,000  Level FlightAware
11:15AM 64.8410 -27.7630 281° West 430 495 37,000  Level FlightAware
11:16AM 64.8530 -27.9200 280° West 431 496 37,000  Level FlightAware
11:17AM 64.8640 -28.0630 280° West 431 496 37,000  Level FlightAware
11:17AM 64.8790 -28.2480 281° West 433 498 37,000  Level FlightAware
11:18AM 64.8890 -28.3930 279° West 435 501 37,000  Level FlightAware
11:18AM 64.9030 -28.5810 280° West 436 502 37,000  Level FlightAware
11:19AM 64.9160 -28.7510 280° West 436 502 37,000  Level FlightAware
11:20AM 64.9290 -28.9480 279° West 436 502 37,000  Level FlightAware
11:20AM 64.9380 -29.0840 279° West 436 502 37,000  Level FlightAware
11:21AM 64.9540 -29.2970 280° West 434 499 37,000  Level FlightAware
11:22AM 64.9640 -29.4500 279° West 434 499 37,000  Level FlightAware
11:22AM 64.9790 -29.6640 280° West 435 501 37,000  Level FlightAware
11:23AM 64.9890 -29.8150 279° West 436 502 37,000  Level FlightAware
11:23AM 64.9990 -29.9720 279° West 436 502 37,000  Level FlightAware
11:24AM 65.0050 -30.1430 275° West 436 502 37,000  Level FlightAware
11:25AM 65.0120 -30.3530 275° West 436 502 37,000  Level FlightAware
11:25AM 65.0170 -30.5250 274° West 437 503 37,000  Level FlightAware
11:26AM 65.0210 -30.6740 274° West 437 503 37,000  Level FlightAware
11:27AM 65.0250 -30.8470 273° West 437 503 37,000  Level FlightAware
11:27AM 65.0330 -31.0870 275° West 438 504 37,000  Level FlightAware
11:28AM 65.0370 -31.2490 273° West 438 504 37,000  Level FlightAware
11:28AM 65.0410 -31.4120 273° West 437 503 37,000  Level FlightAware
11:29AM 65.0440 -31.5580 273° West 437 503 37,000  Level FlightAware
11:30AM 65.0470 -31.7050 273° West 437 503 37,000  Level FlightAware
11:30AM 65.0500 -31.8550 273° West 437 503 37,000  Level FlightAware
11:31AM 65.0530 -32.0020 273° West 437 503 37,000  Level FlightAware
11:32AM 65.0570 -32.1480 274° West 437 503 37,000  Level FlightAware
11:32AM 65.0600 -32.2950 273° West 437 503 37,000  Level FlightAware
11:33AM 65.0630 -32.4410 273° West 437 503 37,000  Level FlightAware
11:33AM 65.0660 -32.5920 273° West 437 503 37,000  Level FlightAware
11:34AM 65.0700 -32.7390 274° West 437 503 37,000  Level FlightAware
11:35AM 65.0730 -32.8850 273° West 437 503 37,000  Level FlightAware
11:35AM 65.0760 -33.0320 273° West 437 503 37,000  Level FlightAware
11:36AM 65.0790 -33.1780 273° West 437 503 37,000  Level FlightAware
11:36AM 65.0830 -33.3250 274° West 437 503 37,000  Level FlightAware
11:37AM 65.0860 -33.4720 273° West 437 503 37,000  Level FlightAware
11:38AM 65.0890 -33.6180 273° West 437 503 37,000  Level FlightAware
11:40AM 64.9737 -34.1042 241° Southwest  Level Estimated
11:41AM 64.9150 -34.3477 240° Southwest  Level Estimated
11:42AM 64.8559 -34.5902 240° Southwest  Level Estimated
11:43AM 64.7964 -34.8316 240° Southwest  Level Estimated
11:44AM 64.7365 -35.0719 240° Southwest  Level Estimated
11:45AM 64.6762 -35.3112 240° Southwest  Level Estimated
11:46AM 64.6155 -35.5494 239° Southwest  Level Estimated
11:47AM 64.5544 -35.7866 239° Southwest  Level Estimated
11:48AM 64.4930 -36.0227 239° Southwest  Level Estimated
11:49AM 64.4312 -36.2577 239° Southwest  Level Estimated
11:50AM 64.3690 -36.4916 239° Southwest  Level Estimated
11:51AM 64.3064 -36.7245 238° Southwest  Level Estimated
11:52AM 64.2435 -36.9564 238° Southwest  Level Estimated
11:53AM 64.1802 -37.1872 238° Southwest  Level Estimated
11:54AM 64.1166 -37.4169 238° Southwest  Level Estimated
11:55AM 64.0526 -37.6456 237° Southwest  Level Estimated
11:56AM 63.9882 -37.8732 237° Southwest  Level Estimated
11:57AM 63.9235 -38.0998 237° Southwest  Level Estimated
11:58AM 63.8584 -38.3253 237° Southwest  Level Estimated
11:59AM 63.7929 -38.5498 237° Southwest  Level Estimated
12:00PM 63.7272 -38.7733 236° Southwest  Level Estimated
12:01PM 63.6610 -38.9957 236° Southwest  Level Estimated
12:02PM 63.5946 -39.2170 236° Southwest  Level Estimated
12:03PM 63.5278 -39.4374 236° Southwest  Level Estimated
12:04PM 63.4607 -39.6567 236° Southwest  Level Estimated
12:05PM 63.3932 -39.8750 235° Southwest  Level Estimated
12:06PM 63.3254 -40.0922 235° Southwest  Level Estimated
12:07PM 63.2573 -40.3084 235° Southwest  Level Estimated
12:08PM 63.1888 -40.5236 235° Southwest  Level Estimated
12:09PM 63.1200 -40.7378 235° Southwest  Level Estimated
12:10PM 63.0509 -40.9510 234° Southwest  Level Estimated
12:11PM 62.9815 -41.1632 234° Southwest  Level Estimated
12:12PM 62.9118 -41.3743 234° Southwest  Level Estimated
12:13PM 62.8417 -41.5845 234° Southwest  Level Estimated
12:14PM 62.7713 -41.7936 234° Southwest  Level Estimated
12:15PM 62.7007 -42.0018 234° Southwest  Level Estimated
12:16PM 62.6297 -42.2089 233° Southwest  Level Estimated
12:17PM 62.5584 -42.4151 233° Southwest  Level Estimated
12:18PM 62.4868 -42.6203 233° Southwest  Level Estimated
12:19PM 62.4149 -42.8244 233° Southwest  Level Estimated
12:20PM 62.3428 -43.0276 233° Southwest  Level Estimated
12:21PM 62.2703 -43.2299 232° Southwest  Level Estimated
12:22PM 62.1975 -43.4311 232° Southwest  Level Estimated
12:23PM 62.1245 -43.6314 232° Southwest  Level Estimated
12:24PM 62.0511 -43.8308 232° Southwest  Level Estimated
12:25PM 61.9775 -44.0291 232° Southwest  Level Estimated
12:26PM 61.9035 -44.2265 232° Southwest  Level Estimated
12:27PM 61.8293 -44.4230 231° Southwest  Level Estimated
12:28PM 61.7549 -44.6185 231° Southwest  Level Estimated
12:29PM 61.6801 -44.8131 231° Southwest  Level Estimated
12:30PM 61.6051 -45.0067 231° Southwest  Level Estimated
12:31PM 61.5298 -45.1994 231° Southwest  Level Estimated
12:32PM 61.4542 -45.3911 231° Southwest  Level Estimated
12:33PM 61.3784 -45.5819 230° Southwest  Level Estimated
12:34PM 61.3023 -45.7718 230° Southwest  Level Estimated
12:35PM 61.2259 -45.9608 230° Southwest  Level Estimated
12:36PM 61.1493 -46.1488 230° Southwest  Level Estimated
12:36PM 63.9660 -50.2260 230° Southwest 457 526 37,000  Level FlightAware
12:37PM 63.9430 -50.3720 250° West 458 527 37,000  Level FlightAware
12:37PM 63.9170 -50.5340 250° West 459 528 37,000  Level FlightAware
12:38PM 63.8930 -50.6900 251° West 462 532 37,000  Level FlightAware
12:38PM 63.8660 -50.8560 250° West 462 532 37,000  Level FlightAware
12:39PM 63.8400 -51.0190 250° West 462 532 37,000  Level FlightAware
12:39PM 63.8160 -51.1630 249° West 463 533 37,000  Level FlightAware
12:40PM 63.7880 -51.3360 250° West 463 533 37,000  Level FlightAware
12:41PM 63.7610 -51.4970 249° West 463 533 37,000  Level FlightAware
12:41PM 63.7390 -51.6310 250° West 463 533 37,000  Level FlightAware
12:42PM 63.7130 -51.7870 249° West 463 533 37,000  Level FlightAware
12:42PM 63.6830 -51.9650 249° West 462 532 37,000  Level FlightAware
12:43PM 63.6550 -52.1260 249° West 463 533 37,000  Level FlightAware
12:44PM 63.6300 -52.2700 249° West 463 533 37,000  Level FlightAware
12:44PM 63.6020 -52.4330 249° West 461 531 37,000  Level FlightAware
12:45PM 63.5770 -52.5740 248° West 461 531 37,000  Level FlightAware
12:45PM 63.5470 -52.7470 249° West 461 531 37,000  Level FlightAware
12:46PM 63.5200 -52.8930 248° West 462 532 37,000  Level FlightAware
12:47PM 63.4920 -53.0490 248° West 463 533 37,000  Level FlightAware
12:47PM 63.4650 -53.2010 248° West 465 535 37,000  Level FlightAware
12:48PM 63.4380 -53.3510 248° West 465 535 37,000  Level FlightAware
12:48PM 63.4100 -53.5040 248° West 465 535 37,000  Level FlightAware
12:49PM 63.3790 -53.6680 247° West 465 535 37,000  Level FlightAware
12:49PM 63.3490 -53.8300 248° West 466 536 37,000  Level FlightAware
12:50PM 63.3230 -53.9680 247° West 466 536 37,000  Level FlightAware
12:51PM 63.2910 -54.1350 247° West 466 536 37,000  Level FlightAware
12:51PM 63.2660 -54.2650 247° West 467 537 37,000  Level FlightAware
12:52PM 63.2380 -54.4090 247° West 467 537 37,000  Level FlightAware
12:52PM 63.2090 -54.5540 246° West 467 537 37,000  Level FlightAware
12:53PM 63.1830 -54.6810 246° West 467 537 37,000  Level FlightAware
12:54PM 63.1550 -54.8220 246° West 467 537 37,000  Level FlightAware
12:54PM 63.1290 -54.9480 246° West 467 537 37,000  Level FlightAware
12:55PM 63.1010 -55.0890 246° West 467 537 37,000  Level FlightAware
12:55PM 63.0750 -55.2190 246° West 467 537 37,000  Level FlightAware
12:56PM 63.0480 -55.3520 246° West 467 537 37,000  Level FlightAware
12:57PM 63.0210 -55.4860 246° West 467 537 37,000  Level FlightAware
12:57PM 62.9940 -55.6190 246° West 467 537 37,000  Level FlightAware
12:58PM 62.9660 -55.7590 246° West 467 537 37,000  Level FlightAware
12:58PM 62.9400 -55.8880 246° West 467 537 37,000  Level FlightAware
12:59PM 62.9130 -56.0210 246° West 467 537 37,000  Level FlightAware
01:00PM 62.8860 -56.1530 246° West 467 537 37,000  Level FlightAware
01:00PM 62.8590 -56.2860 246° West 467 537 37,000  Level FlightAware
01:01PM 62.8310 -56.4220 246° West 467 537 37,000  Level FlightAware
01:03PM 62.7466 -56.8138 245° Southwest  Level FlightAware Approximate
01:04PM 62.6538 -56.9574 215° Southwest  Level Estimated
01:05PM 62.5608 -57.1001 215° Southwest  Level Estimated
01:06PM 62.4678 -57.2419 215° Southwest  Level Estimated
01:07PM 62.3745 -57.3828 215° Southwest  Level Estimated
01:08PM 62.2811 -57.5228 215° Southwest  Level Estimated
01:09PM 62.1876 -57.6620 215° Southwest  Level Estimated
01:09PM 62.0667 -58.3833 214° Southwest 360 414 37,000  Level Gander Center
01:10PM 62.0939 -57.8003 215° Southwest  Level Estimated
01:10PM 62.0000 -58.5000 219° Southwest 430 495 37,000  Level Montreal Center
01:11PM 62.0001 -57.9377 215° Southwest  Level Estimated
01:11PM 61.9167 -58.7333 233° Southwest 470 541 37,000  Level Montreal Center
01:12PM 61.9062 -58.0743 214° Southwest  Level Estimated
01:12PM 61.8333 -58.9167 226° Southwest 470 541 37,000  Level Montreal Center
01:13PM 61.8121 -58.2101 214° Southwest  Level Estimated
01:13PM 61.7500 -59.1500 233° Southwest 470 541 36,800  Level Montreal Center
01:14PM 61.7179 -58.3450 214° Southwest  Level Estimated
01:14PM 61.6667 -59.3500 229° Southwest 470 541 36,300  Level Montreal Center
01:15PM 61.5833 -59.5667 231° Southwest 470 541 36,000 -180 Descending Montreal Center
01:16PM 61.5000 -59.7833 231° Southwest 470 541 36,000  Level Montreal Center
01:17PM 61.4000 -59.9833 224° Southwest 470 541 36,000  Level Montreal Center
01:18PM 61.3333 -60.2000 237° Southwest 470 541 36,000  Level Montreal Center
01:19PM 61.2500 -60.3833 227° Southwest 460 529 36,000  Level Montreal Center
01:20PM 61.1500 -60.6000 226° Southwest 460 529 36,000  Level Montreal Center
01:21PM 61.0667 -60.7833 227° Southwest 460 529 36,000  Level Montreal Center
01:22PM 60.9833 -61.0000 232° Southwest 460 529 36,000  Level Montreal Center
01:23PM 60.9167 -61.1667 231° Southwest 460 529 36,000  Level Montreal Center
01:24PM 60.8333 -61.3833 232° Southwest 470 541 36,000  Level Montreal Center
01:25PM 60.7333 -61.6000 227° Southwest 470 541 36,000  Level Montreal Center
01:26PM 60.6500 -61.7833 227° Southwest 470 541 36,000  Level Montreal Center
01:27PM 60.5667 -61.9833 230° Southwest 470 541 36,000  Level Montreal Center
01:28PM 60.4667 -62.1667 222° Southwest 470 541 36,000  Level Montreal Center
01:29PM 60.3833 -62.3667 230° Southwest 470 541 36,000  Level Montreal Center
01:30PM 60.3000 -62.5833 232° Southwest 470 541 36,000  Level Montreal Center
01:31PM 60.2167 -62.7833 230° Southwest 460 529 36,000  Level Montreal Center
01:32PM 60.1167 -62.9667 222° Southwest 460 529 36,000  Level Montreal Center
01:33PM 60.0333 -63.1333 225° Southwest 460 529 36,000  Level Montreal Center
01:34PM 59.9333 -63.3333 225° Southwest 460 529 36,000  Level Montreal Center
01:35PM 59.8333 -63.4833 217° Southwest 460 529 36,000  Level Montreal Center
01:36PM 59.7167 -63.6500 216° Southwest 460 529 36,000  Level Montreal Center
01:37PM 59.6167 -63.8000 217° Southwest 460 529 36,000  Level Montreal Center
01:38PM 59.5333 -63.9167 215° Southwest 460 529 36,000  Level Montreal Center
01:39PM 59.4167 -64.0667 213° Southwest 460 529 36,000  Level Montreal Center
01:40PM 59.3167 -64.2000 214° Southwest 460 529 36,000  Level Montreal Center
01:41PM 59.2000 -64.3333 210° Southwest 460 529 36,000  Level Montreal Center
01:42PM 59.1000 -64.4667 214° Southwest 460 529 36,000  Level Montreal Center
01:43PM 59.0000 -64.6000 214° Southwest 460 529 36,000  Level Montreal Center
01:44PM 58.8833 -64.7333 211° Southwest 460 529 36,000  Level Montreal Center
01:45PM 58.7833 -64.9000 221° Southwest 460 529 36,000  Level Montreal Center
01:46PM 58.6667 -65.0333 211° Southwest 460 529 36,000  Level Montreal Center
01:47PM 58.5667 -65.1667 215° Southwest 460 529 36,000  Level Montreal Center
01:48PM 58.4500 -65.3000 211° Southwest 460 529 36,000  Level Montreal Center
01:49PM 58.3500 -65.4167 211° Southwest 450 518 36,000  Level Montreal Center
01:50PM 58.2333 -65.5500 211° Southwest 460 529 36,000  Level Montreal Center
01:51PM 58.1333 -65.6833 215° Southwest 460 529 36,000  Level Montreal Center
01:52PM 58.0167 -65.8000 208° Southwest 450 518 36,000  Level Montreal Center
01:53PM 57.9167 -65.9667 222° Southwest 460 529 36,000  Level Montreal Center
01:54PM 57.8333 -66.0833 217° Southwest 450 518 36,000  Level Montreal Center
01:55PM 57.7167 -66.2000 208° Southwest 450 518 36,000  Level Montreal Center
01:56PM 57.6000 -66.3333 211° Southwest 450 518 36,000  Level Montreal Center
01:57PM 57.5000 -66.4500 213° Southwest 450 518 36,000  Level Montreal Center
01:58PM 57.4229 -66.4834 205° Southwest  Level FlightAware Approximate
01:58PM 57.3833 -66.5833 212° Southwest 450 518 36,000  Level Montreal Center
01:59PM 57.2833 -66.7000 212° Southwest 450 518 36,000  Level Montreal Center
02:00PM 57.1833 -66.8167 212° Southwest 450 518 36,000  Level Montreal Center
02:01PM 57.0833 -66.9333 212° Southwest 450 518 36,000  Level Montreal Center
02:02PM 56.9500 -67.0833 212° Southwest 450 518 36,000  Level Montreal Center
02:03PM 56.8333 -67.2167 212° Southwest 460 529 36,000  Level Montreal Center
02:04PM 56.7500 -67.3167 213° Southwest 460 529 36,000  Level Montreal Center
02:05PM 56.7419 -67.2597 213° Southwest  Level FlightAware Approximate
02:05PM 56.6333 -67.4333 209° Southwest 450 518 36,000  Level Montreal Center
02:06PM 56.5333 -67.5500 213° Southwest 450 518 36,000  Level Montreal Center
02:07PM 56.4167 -67.6667 209° Southwest 450 518 36,000  Level Montreal Center
02:08PM 56.3167 -67.7833 213° Southwest 440 506 36,000  Level Montreal Center
02:09PM 56.2167 -67.9000 213° Southwest 440 506 36,000  Level Montreal Center
02:10PM 56.1000 -68.0167 209° Southwest 440 506 36,000  Level Montreal Center
02:11PM 56.0000 -68.1167 209° Southwest 440 506 36,000  Level Montreal Center
02:12PM 55.9000 -68.2333 213° Southwest 440 506 36,000  Level Montreal Center
02:13PM 55.8000 -68.3500 213° Southwest 440 506 36,000  Level Montreal Center
02:14PM 55.6833 -68.4500 210° Southwest 440 506 36,000  Level Montreal Center
02:15PM 55.6220 -68.5273 209° Southwest  Level FlightAware Approximate
02:15PM 55.5833 -68.5667 213° Southwest 440 506 36,000  Level Montreal Center
02:16PM 55.4667 -68.6833 210° Southwest 440 506 36,000  Level Montreal Center
02:17PM 55.3500 -68.7833 206° Southwest 440 506 36,000  Level Montreal Center
02:18PM 55.2500 -68.9000 214° Southwest 440 506 36,000  Level Montreal Center
02:19PM 55.1500 -69.0000 210° Southwest 440 506 36,000  Level Montreal Center
02:20PM 55.0500 -69.1000 210° Southwest 430 495 36,000  Level Montreal Center
02:21PM 54.9333 -69.2167 210° Southwest 430 495 36,000  Level Montreal Center
02:22PM 54.9216 -69.2125 210° Southwest  Level FlightAware Approximate
02:22PM 54.8333 -69.3167 210° Southwest 430 495 36,000  Level Montreal Center
02:23PM 54.7333 -69.4333 214° Southwest 430 495 36,000  Level Montreal Center
02:24PM 54.6167 -69.5333 206° Southwest 440 506 36,000  Level Montreal Center
02:25PM 54.5167 -69.6333 210° Southwest 430 495 36,000  Level Montreal Center
02:26PM 54.4167 -69.7333 210° Southwest 430 495 36,000  Level Montreal Center
02:27PM 54.3000 -69.8500 210° Southwest 430 495 36,000  Level Montreal Center
02:28PM 54.2000 -69.9500 210° Southwest 430 495 36,000  Level Montreal Center
02:29PM 54.0833 -70.0500 207° Southwest 430 495 36,000  Level Montreal Center
02:30PM 53.9833 -70.1500 210° Southwest 430 495 36,000  Level Montreal Center
02:31PM 53.8833 -70.2500 211° Southwest 430 495 36,000  Level Montreal Center
02:32PM 53.7833 -70.3500 211° Southwest 430 495 36,000  Level Montreal Center
02:33PM 53.6667 -70.4500 207° Southwest 430 495 36,000  Level Montreal Center
02:34PM 53.5667 -70.5500 211° Southwest 430 495 36,000  Level Montreal Center
02:35PM 53.4667 -70.6500 211° Southwest 430 495 36,000  Level Montreal Center
02:36PM 53.3667 -70.7333 206° Southwest 430 495 36,000  Level Montreal Center
02:37PM 53.2667 -70.8333 211° Southwest 420 483 36,000  Level Montreal Center
02:38PM 53.1500 -70.9333 207° Southwest 430 495 36,000  Level Montreal Center
02:39PM 53.0500 -71.0333 211° Southwest 430 495 36,000  Level Montreal Center
02:40PM 52.9333 -71.1000 199° South 430 495 36,000  Level Montreal Center
02:41PM 52.8167 -71.2000 207° Southwest 420 483 36,000  Level Montreal Center
02:42PM 52.7333 -71.2833 211° Southwest 420 483 36,000  Level Montreal Center
02:43PM 52.6333 -71.3833 211° Southwest 420 483 36,000  Level Montreal Center
02:44PM 52.5167 -71.4833 208° Southwest 420 483 36,000  Level Montreal Center
02:45PM 52.4167 -71.5667 207° Southwest 420 483 36,000  Level Montreal Center
02:46PM 52.3167 -71.6667 211° Southwest 420 483 36,000  Level Montreal Center
02:47PM 52.2000 -71.7667 208° Southwest 420 483 36,000  Level Montreal Center
02:48PM 52.1000 -71.8500 207° Southwest 420 483 36,000  Level Montreal Center
02:49PM 52.0000 -71.9500 212° Southwest 420 483 36,000  Level Montreal Center
02:50PM 51.9000 -72.0333 207° Southwest 420 483 36,000  Level Montreal Center
02:51PM 51.8000 -72.1000 202° Southwest 420 483 36,000  Level Montreal Center
02:52PM 51.7000 -72.1833 207° Southwest 420 483 36,000  Level Montreal Center
02:53PM 51.5833 -72.2833 208° Southwest 420 483 36,000  Level Montreal Center
02:54PM 51.4833 -72.3667 207° Southwest 420 483 36,000  Level Montreal Center
02:55PM 51.3667 -72.4667 208° Southwest 420 483 36,000  Level Montreal Center
02:56PM 51.2833 -72.5667 217° Southwest 420 483 36,000  Level Montreal Center
02:57PM 51.1833 -72.6833 216° Southwest 420 483 36,000  Level Montreal Center
02:58PM 51.0833 -72.8000 216° Southwest 420 483 36,000  Level Montreal Center
02:59PM 51.0000 -72.9167 221° Southwest 420 483 36,000  Level Montreal Center
03:00PM 50.9167 -73.0333 221° Southwest 420 483 36,000  Level Montreal Center
03:01PM 50.8333 -73.1333 217° Southwest 410 472 36,000  Level Montreal Center
03:02PM 50.7333 -73.2500 216° Southwest 410 472 36,000  Level Montreal Center
03:03PM 50.6333 -73.3667 217° Southwest 410 472 36,000  Level Montreal Center
03:04PM 50.5333 -73.4833 217° Southwest 420 483 36,000  Level Montreal Center
03:05PM 50.4500 -73.5833 217° Southwest 420 483 36,000  Level Montreal Center
03:06PM 50.3500 -73.7167 220° Southwest 420 483 36,000  Level Montreal Center
03:07PM 50.2667 -73.8000 213° Southwest 420 483 36,000  Level Montreal Center
03:08PM 50.1833 -73.9500 229° Southwest 420 483 36,000  Level Montreal Center
03:09PM 50.0833 -74.0500 213° Southwest 420 483 36,000  Level Montreal Center
03:10PM 50.0000 -74.1667 222° Southwest 420 483 36,000  Level Montreal Center
03:11PM 49.8667 -74.3167 216° Southwest 430 495 36,000  Level Montreal Center
03:12PM 49.7667 -74.4333 217° Southwest 420 483 36,000  Level Montreal Center
03:13PM 49.6667 -74.5333 213° Southwest 420 483 36,000  Level Montreal Center
03:14PM 49.5833 -74.6500 222° Southwest 410 472 36,000  Level Montreal Center
03:15PM 49.4833 -74.7500 213° Southwest 410 472 36,000  Level Montreal Center
03:16PM 49.4000 -74.8500 218° Southwest 410 472 36,000  Level Montreal Center
03:17PM 49.3000 -74.9667 217° Southwest 410 472 36,000  Level Montreal Center
03:18PM 49.2000 -75.0667 213° Southwest 420 483 36,000  Level Montreal Center
03:19PM 49.1167 -75.1667 218° Southwest 410 472 36,000  Level Montreal Center
03:20PM 49.0167 -75.2667 213° Southwest 410 472 36,000  Level Montreal Center
03:21PM 48.9333 -75.3833 223° Southwest 410 472 36,000  Level Montreal Center
03:22PM 48.8333 -75.4833 213° Southwest 410 472 36,000  Level Montreal Center
03:23PM 48.7500 -75.5833 218° Southwest 410 472 36,000  Level Montreal Center
03:24PM 48.6500 -75.6833 213° Southwest 410 472 36,000  Level Montreal Center
03:25PM 48.5500 -75.7833 214° Southwest 410 472 36,000  Level Montreal Center
03:26PM 48.4667 -75.9167 227° Southwest 420 483 36,000  Level Montreal Center
03:27PM 48.3667 -76.0167 214° Southwest 420 483 36,000  Level Montreal Center
03:28PM 48.2833 -76.1000 214° Southwest 420 483 36,000  Level Montreal Center
03:31PM 48.1590 -76.2281 215° Southwest  Level FlightAware Approximate
03:37PM 47.7900 -76.6340 215° Southwest 416 479 36,000  Level FlightAware ADS-B
03:37PM 47.7860 -76.6380 214° Southwest 416 479 36,000  Level FlightAware ADS-B
03:37PM 47.7830 -76.6420 222° Southwest 416 479 36,000  Level FlightAware ADS-B
03:37PM 47.7800 -76.6450 214° Southwest 416 479 36,000  Level FlightAware ADS-B
03:37PM 47.7770 -76.6480 214° Southwest 416 479 36,000  Level FlightAware ADS-B
03:37PM 47.7760 -76.6500 233° Southwest 416 479 36,000  Level FlightAware ADS-B
03:38PM 47.7740 -76.6510 199° South 416 479 36,000  Level FlightAware ADS-B
03:38PM 47.7660 -76.6600 217° Southwest 416 479 36,000  Level FlightAware ADS-B
03:38PM 47.7650 -76.6610 214° Southwest 416 479 36,000  Level FlightAware ADS-B
03:39PM 47.2900 -77.1580 215° Southwest 413 475 36,000  Level FlightAware
03:39PM 47.2270 -77.2230 215° Southwest 416 479 36,000  Level FlightAware
03:40PM 47.7090 -76.7200 35° Northeast 415 478 36,000  Level FlightAware ADS-B
03:40PM 47.6990 -76.7310 217° Southwest 415 478 36,000  Level FlightAware ADS-B
03:40PM 47.6960 -76.7330 204° Southwest 415 478 36,000  Level FlightAware ADS-B
03:40PM 47.6940 -76.7360 225° Southwest 415 478 36,000  Level FlightAware ADS-B
03:41PM 47.6920 -76.7370 199° South 415 478 36,000  Level FlightAware ADS-B
03:41PM 47.6880 -76.7420 220° Southwest 415 478 36,000  Level FlightAware ADS-B
03:42PM 47.0120 -77.4430 215° Southwest 416 479 36,000  Level FlightAware
03:42PM 47.4730 -76.9680 35° Northeast 414 476 36,000  Level FlightAware ADS-B
03:42PM 47.4710 -76.9700 214° Southwest 414 476 36,000  Level FlightAware ADS-B
03:42PM 47.4680 -76.9730 214° Southwest 414 476 36,000  Level FlightAware ADS-B
03:42PM 47.4670 -76.9740 214° Southwest 414 476 36,000  Level FlightAware ADS-B
03:42PM 47.4620 -76.9790 214° Southwest 414 476 36,000  Level FlightAware ADS-B
03:43PM 47.4590 -76.9820 214° Southwest 414 476 36,000  Level FlightAware ADS-B
03:43PM 46.8560 -77.6020 215° Southwest 410 472 36,000  Level FlightAware
03:44PM 46.7970 -77.6610 214° Southwest 409 471 36,000  Level FlightAware
03:45PM 46.7400 -77.7190 215° Southwest 412 474 36,000  Level FlightAware
03:45PM 46.7010 -77.7580 214° Southwest 412 474 36,000  Level FlightAware
03:46PM 46.6340 -77.8260 215° Southwest 411 473 36,000  Level FlightAware
03:46PM 46.5690 -77.8910 215° Southwest 412 474 36,000  Level FlightAware
03:47PM 47.0790 -77.3750 35° Northeast 418 481 36,000  Level FlightAware ADS-B
03:48PM 47.0630 -77.3910 214° Southwest 418 481 36,000  Level FlightAware ADS-B
03:48PM 47.0600 -77.3940 214° Southwest 418 481 36,000  Level FlightAware ADS-B
03:48PM 47.0580 -77.3960 214° Southwest 418 481 36,000  Level FlightAware ADS-B
03:48PM 47.0540 -77.4000 214° Southwest 419 482 36,000  Level FlightAware ADS-B
03:49PM 46.3360 -78.1230 215° Southwest 408 470 36,000  Level FlightAware
03:49PM 46.2850 -78.1730 214° Southwest 407 468 36,000  Level FlightAware
03:50PM 46.2360 -78.2220 215° Southwest 410 472 36,000  Level FlightAware
03:51PM 46.1770 -78.2800 214° Southwest 413 475 36,000  Level FlightAware
03:51PM 46.1300 -78.3260 214° Southwest 412 474 36,000  Level FlightAware
03:52PM 46.0770 -78.3780 214° Southwest 411 473 36,000  Level FlightAware
03:52PM 46.0230 -78.4300 214° Southwest 408 470 36,000  Level FlightAware
03:53PM 45.9550 -78.4970 214° Southwest 408 470 36,000  Level FlightAware
03:54PM 45.9000 -78.5500 214° Southwest 409 471 36,000  Level FlightAware
03:54PM 45.8450 -78.6030 214° Southwest 409 471 36,000  Level FlightAware
03:55PM 45.8000 -78.6470 214° Southwest 409 471 36,000  Level FlightAware
03:55PM 45.7470 -78.6980 214° Southwest 409 471 36,000  Level FlightAware
03:56PM 45.6900 -78.7530 214° Southwest 409 471 36,000  Level FlightAware
03:56PM 45.6460 -78.7950 214° Southwest 409 471 36,000  Level FlightAware
03:57PM 45.5900 -78.8490 214° Southwest 409 471 36,000  Level FlightAware
03:58PM 45.5280 -78.9080 214° Southwest 409 471 36,000  Level FlightAware
03:58PM 45.4780 -78.9560 214° Southwest 409 471 36,000  Level FlightAware
03:59PM 45.4250 -79.0070 214° Southwest 409 471 36,000  Level FlightAware
03:59PM 45.3650 -79.0630 213° Southwest 408 470 36,000  Level FlightAware
04:00PM 45.3200 -79.1050 213° Southwest 408 470 36,000  Level FlightAware
04:00PM 45.2620 -79.1610 214° Southwest 406 467 36,000  Level FlightAware
04:01PM 45.1930 -79.2260 214° Southwest 404 465 36,000  Level FlightAware
04:02PM 45.1420 -79.2730 213° Southwest 405 466 36,000  Level FlightAware
04:02PM 45.0860 -79.3260 214° Southwest 406 467 36,000  Level FlightAware
04:03PM 45.0360 -79.3730 214° Southwest 402 463 36,000  Level FlightAware
04:03PM 44.9720 -79.4320 213° Southwest 404 465 36,000  Level FlightAware
04:04PM 44.9220 -79.4790 214° Southwest 401 461 36,000  Level FlightAware
04:05PM 44.8680 -79.5300 214° Southwest 402 463 36,000  Level FlightAware
04:05PM 44.8140 -79.5790 213° Southwest 403 464 36,000  Level FlightAware
04:06PM 44.7560 -79.6330 213° Southwest 403 464 36,000  Level FlightAware
04:06PM 44.7010 -79.6840 213° Southwest 404 465 36,000  Level FlightAware
04:07PM 44.6410 -79.7390 213° Southwest 405 466 36,000  Level FlightAware
04:07PM 44.6000 -79.7770 213° Southwest 404 465 36,000  Level FlightAware
04:08PM 44.5400 -79.8320 213° Southwest 404 465 36,000  Level FlightAware
04:09PM 44.4890 -79.8770 212° Southwest 399 459 36,000  Level FlightAware
04:09PM 44.4210 -79.9390 213° Southwest 396 456 36,000  Level FlightAware
04:10PM 44.3660 -79.9880 212° Southwest 398 458 36,000  Level FlightAware
04:11PM 44.3120 -80.0370 213° Southwest 395 455 36,000  Level FlightAware
04:11PM 44.2750 -80.0700 213° Southwest 395 455 36,000  Level FlightAware
04:12PM 44.2050 -80.1320 212° Southwest 397 457 36,000  Level FlightAware
04:12PM 44.1350 -80.1940 212° Southwest 400 460 36,000  Level FlightAware
04:13PM 44.0830 -80.2400 212° Southwest 403 464 36,000  Level FlightAware
04:14PM 44.0320 -80.2860 213° Southwest 406 467 36,000  Level FlightAware
04:14PM 43.9740 -80.3370 212° Southwest 404 465 36,000  Level FlightAware
04:15PM 43.9160 -80.3880 212° Southwest 401 461 36,000  Level FlightAware
04:15PM 43.8590 -80.4380 212° Southwest 401 461 36,000  Level FlightAware
04:16PM 43.8050 -80.4860 213° Southwest 400 460 36,000  Level FlightAware
04:17PM 43.7530 -80.5310 212° Southwest 399 459 36,000  Level FlightAware
04:17PM 43.7010 -80.5770 213° Southwest 397 457 36,000  Level FlightAware
04:18PM 43.6410 -80.6290 212° Southwest 396 456 36,000  Level FlightAware
04:18PM 43.5850 -80.6780 212° Southwest 397 457 36,000  Level FlightAware
04:19PM 43.5300 -80.7260 212° Southwest 399 459 36,000  Level FlightAware
04:19PM 43.4750 -80.7740 212° Southwest 401 461 36,000  Level FlightAware
04:20PM 43.4240 -80.8180 212° Southwest 403 464 36,000  Level FlightAware
04:21PM 43.3690 -80.8660 212° Southwest 403 464 36,000  Level FlightAware
04:21PM 43.3130 -80.9130 211° Southwest 403 464 36,000  Level FlightAware
04:22PM 43.2630 -80.9560 212° Southwest 403 464 36,000  Level FlightAware
04:22PM 43.2050 -81.0070 213° Southwest 403 464 36,000  Level FlightAware
04:23PM 43.1570 -81.0470 211° Southwest 403 464 36,000  Level FlightAware
04:23PM 43.1130 -81.0850 212° Southwest 402 463 36,000  Level FlightAware
04:24PM 43.0570 -81.1320 212° Southwest 402 463 36,000  Level FlightAware
04:25PM 42.9900 -81.1770 206° Southwest 409 471 36,000  Level FlightAware
04:25PM 42.9700 -81.1900 205° Southwest 408 470 36,000  Level FlightAware
04:25PM 42.9600 -81.1960 204° Southwest 408 470 36,000  Level FlightAware
04:25PM 42.9470 -81.2040 204° Southwest 407 468 36,000  Level FlightAware
04:25PM 42.9410 -81.2080 206° Southwest 407 468 36,000  Level FlightAware
04:25PM 42.9250 -81.2180 205° Southwest 407 468 36,000  Level FlightAware
04:25PM 42.9090 -81.2280 205° Southwest 407 468 36,000  Level FlightAware
04:25PM 42.8990 -81.2350 207° Southwest 407 468 36,000  Level FlightAware
04:26PM 42.8690 -81.2530 204° Southwest 406 467 36,000  Level FlightAware
04:26PM 42.8590 -81.2600 207° Southwest 406 467 36,000  Level FlightAware
04:26PM 42.8420 -81.2700 203° Southwest 406 467 36,000  Level FlightAware
04:26PM 42.8330 -81.2750 202° Southwest 406 467 36,000  Level FlightAware
04:26PM 42.8220 -81.2820 205° Southwest 406 467 36,000  Level FlightAware
04:26PM 42.8110 -81.2900 208° Southwest 406 467 36,000  Level FlightAware
04:26PM 42.7950 -81.2990 202° Southwest 406 467 36,000  Level FlightAware
04:27PM 42.7880 -81.3030 203° Southwest 405 466 36,000  Level FlightAware
04:27PM 42.7840 -81.3060 209° Southwest 405 466 36,000  Level FlightAware
04:27PM 42.7620 -81.3190 203° Southwest 405 466 36,000  Level FlightAware
04:27PM 42.7500 -81.3270 206° Southwest 405 466 36,000  Level FlightAware
04:27PM 42.7420 -81.3320 205° Southwest 405 466 36,000  Level FlightAware
04:27PM 42.7290 -81.3400 204° Southwest 405 466 36,000  Level FlightAware
04:27PM 42.7140 -81.3490 204° Southwest 405 466 36,000  Level FlightAware
04:27PM 42.7040 -81.3550 204° Southwest 404 465 36,000  Level FlightAware
04:27PM 42.6930 -81.3620 205° Southwest 404 465 36,000  Level FlightAware
04:28PM 42.6690 -81.3760 203° Southwest 405 466 36,000  Level FlightAware
04:28PM 42.6550 -81.3850 205° Southwest 405 466 36,000  Level FlightAware
04:28PM 42.6430 -81.3920 203° Southwest 405 466 36,000  Level FlightAware
04:28PM 42.6360 -81.3970 208° Southwest 405 466 36,000  Level FlightAware
04:28PM 42.6240 -81.4040 203° Southwest 405 466 36,000  Level FlightAware
04:28PM 42.6070 -81.4140 203° Southwest 405 466 36,000  Level FlightAware
04:28PM 42.5950 -81.4220 206° Southwest 405 466 36,000  Level FlightAware
04:29PM 42.5850 -81.4280 204° Southwest 406 467 36,000  Level FlightAware
04:29PM 42.5800 -81.4310 204° Southwest 406 467 36,000  Level FlightAware
04:29PM 42.5580 -81.4440 204° Southwest 406 467 36,000  Level FlightAware
04:29PM 42.5410 -81.4540 203° Southwest 405 466 36,000  Level FlightAware
04:29PM 42.5380 -81.4570 216° Southwest 405 466 36,000  Level FlightAware
04:29PM 42.5260 -81.4640 203° Southwest 405 466 36,000  Level FlightAware
04:29PM 42.5110 -81.4730 204° Southwest 405 466 36,000  Level FlightAware
04:29PM 42.5020 -81.4780 202° Southwest 405 466 36,000  Level FlightAware
04:29PM 42.4880 -81.4870 205° Southwest 404 465 36,000  Level FlightAware
04:30PM 42.4750 -81.4950 204° Southwest 404 465 36,000  Level FlightAware
04:30PM 42.4640 -81.5010 202° Southwest 404 465 36,000  Level FlightAware
04:30PM 42.4550 -81.5070 206° Southwest 403 464 36,000  Level FlightAware
04:30PM 42.4410 -81.5150 203° Southwest 403 464 36,000  Level FlightAware
04:30PM 42.4250 -81.5250 205° Southwest 403 464 36,000  Level FlightAware
04:30PM 42.4140 -81.5320 205° Southwest 402 463 36,000  Level FlightAware
04:30PM 42.4060 -81.5370 205° Southwest 402 463 36,000  Level FlightAware
04:30PM 42.3920 -81.5450 203° Southwest 402 463 36,000  Level FlightAware
04:31PM 42.3810 -81.5520 205° Southwest 401 461 36,000  Level FlightAware
04:31PM 42.3710 -81.5580 204° Southwest 400 460 36,000  Level FlightAware
04:31PM 42.3580 -81.5660 204° Southwest 398 458 36,000  Level FlightAware
04:31PM 42.3480 -81.5720 204° Southwest 397 457 36,000  Level FlightAware
04:31PM 42.3340 -81.5800 203° Southwest 397 457 36,000  Level FlightAware
04:31PM 42.3250 -81.5860 206° Southwest 397 457 36,000  Level FlightAware
04:31PM 42.3080 -81.5960 204° Southwest 397 457 36,000  Level FlightAware
04:31PM 42.2980 -81.6020 204° Southwest 397 457 36,000  Level FlightAware
04:31PM 42.2860 -81.6090 203° Southwest 397 457 36,000  Level FlightAware
04:32PM 42.2760 -81.6160 207° Southwest 397 457 36,000  Level FlightAware
04:32PM 42.2690 -81.6190 198° South 397 457 36,000  Level FlightAware
04:32PM 42.2510 -81.6300 204° Southwest 396 456 36,000  Level FlightAware
04:32PM 42.2370 -81.6390 205° Southwest 397 457 36,000  Level FlightAware
04:32PM 42.2330 -81.6420 209° Southwest 397 457 36,000  Level FlightAware
04:32PM 42.2180 -81.6510 204° Southwest 397 457 36,000  Level FlightAware
04:32PM 42.2060 -81.6580 203° Southwest 397 457 36,000  Level FlightAware
04:32PM 42.1890 -81.6680 204° Southwest 396 456 36,000  Level FlightAware
04:33PM 42.1830 -81.6720 206° Southwest 396 456 36,000  Level FlightAware
04:33PM 42.1700 -81.6800 205° Southwest 396 456 36,000  Level FlightAware
04:33PM 42.1590 -81.6860 202° Southwest 396 456 36,000  Level FlightAware
04:33PM 42.1460 -81.6940 205° Southwest 395 455 36,000  Level FlightAware
04:33PM 42.1320 -81.7020 203° Southwest 395 455 36,000  Level FlightAware
04:33PM 42.1200 -81.7090 203° Southwest 395 455 36,000  Level FlightAware
04:33PM 42.1140 -81.7130 206° Southwest 395 455 36,000  Level FlightAware
04:33PM 42.1020 -81.7200 203° Southwest 395 455 36,000  Level FlightAware
04:34PM 42.0770 -81.7360 205° Southwest 396 456 36,000  Level FlightAware
04:34PM 42.0670 -81.7420 204° Southwest 396 456 36,000  Level FlightAware
04:34PM 42.0540 -81.7500 205° Southwest 396 456 36,000  Level FlightAware
04:34PM 42.0450 -81.7550 202° Southwest 396 456 36,000  Level FlightAware
04:34PM 42.0390 -81.7590 206° Southwest 396 456 36,000  Level FlightAware
04:34PM 42.0250 -81.7670 203° Southwest 396 456 36,000  Level FlightAware
04:34PM 42.0050 -81.7790 204° Southwest 396 456 36,000  Level FlightAware
04:35PM 41.9740 -81.7970 203° Southwest 397 457 36,000  Level FlightAware
04:35PM 41.9420 -81.8170 205° Southwest 398 458 36,000  Level FlightAware
04:36PM 41.8570 -81.8670 204° Southwest 399 459 36,000  Level FlightAware
04:36PM 41.8280 -81.8840 204° Southwest 399 459 36,000  Level FlightAware
04:37PM 41.7390 -81.9370 204° Southwest 397 457 36,000  Level FlightAware
04:38PM 41.6780 -81.9730 204° Southwest 394 453 36,000  Level FlightAware
04:38PM 41.6390 -81.9970 205° Southwest 393 452 36,000  Level FlightAware
04:39PM 41.5650 -82.0400 204° Southwest 393 452 36,000  Level FlightAware
04:43PM 41.1050 -82.2530 199° South 400 460 36,000  Level FlightAware
04:45PM 40.8420 -82.3460 195° South 403 464 36,000  Level FlightAware
04:46PM 40.7770 -82.3690 195° South 403 464 36,000  Level FlightAware
04:47PM 40.7200 -82.3900 196° South 402 463 36,000  Level FlightAware
04:48PM 40.5770 -82.4400 195° South 400 460 36,000  Level FlightAware
04:49PM 40.4580 -82.4820 195° South 399 459 36,000  Level FlightAware
04:51PM 40.2350 -82.5600 195° South 391 450 36,000  Level FlightAware
04:51PM 40.2060 -82.5700 195° South 391 450 36,000  Level FlightAware
04:56PM 39.7110 -82.6180 184° South 403 464 36,000  Level FlightAware
04:57PM 39.5960 -82.6260 183° South 404 465 36,000  Level FlightAware
05:00PM 39.2650 -82.6480 183° South 405 466 36,000  Level FlightAware
05:05PM 38.7350 -82.6830 183° South 413 475 36,000  Level FlightAware
05:09PM 38.2040 -82.7180 183° South 414 476 36,000  Level FlightAware
05:10PM 38.1203 -82.7231 183° South 415 478 36,000  Level FlightAware ADS-B
05:10PM 38.1100 -82.7238 183° South 414 476 36,000  Level FlightAware ADS-B
05:11PM 37.9927 -82.7313 183° South 413 475 36,000  Level FlightAware ADS-B
05:11PM 37.9776 -82.7322 183° South 413 475 36,000  Level FlightAware ADS-B
05:13PM 37.7548 -82.7482 183° South 405 466 36,000  Level FlightAware ADS-B
05:15PM 37.5481 -82.8369 199° South 385 443 36,000  Level FlightAware ADS-B
05:16PM 37.4938 -82.8728 208° Southwest 386 444 36,000  Level FlightAware ADS-B
05:16PM 37.4247 -82.9182 208° Southwest 387 445 36,000  Level FlightAware ADS-B
05:17PM 37.3436 -82.9715 208° Southwest 386 444 36,000  Level FlightAware ADS-B
05:18PM 37.2957 -83.0028 207° Southwest 385 443 36,000  Level FlightAware ADS-B
05:18PM 37.2446 -83.0362 207° Southwest 384 442 36,000  Level FlightAware ADS-B
05:19PM 37.1941 -83.0691 207° Southwest 381 438 36,000  Level FlightAware ADS-B
05:19PM 37.1458 -83.1006 207° Southwest 379 436 36,000  Level FlightAware ADS-B
05:20PM 37.0979 -83.1318 207° Southwest 377 434 36,000  Level FlightAware ADS-B
05:20PM 37.0499 -83.1630 207° Southwest 374 430 36,000  Level FlightAware ADS-B
05:21PM 37.0025 -83.1937 207° Southwest 373 429 36,000  Level FlightAware ADS-B
05:21PM 36.9562 -83.2238 207° Southwest 373 429 36,000  Level FlightAware ADS-B
05:22PM 36.9093 -83.2543 207° Southwest 375 432 36,000  Level FlightAware ADS-B
05:22PM 36.8626 -83.2845 207° Southwest 376 433 36,000  Level FlightAware ADS-B
05:23PM 36.8089 -83.3191 207° Southwest 375 432 36,000  Level FlightAware ADS-B
05:24PM 36.7618 -83.3495 207° Southwest 373 429 36,000  Level FlightAware ADS-B
05:24PM 36.7153 -83.3794 207° Southwest 372 428 36,000  Level FlightAware ADS-B
05:25PM 36.6651 -83.4117 207° Southwest 368 423 36,000  Level FlightAware ADS-B
05:25PM 36.6200 -83.4406 207° Southwest 367 422 36,000  Level FlightAware ADS-B
05:26PM 36.5725 -83.4711 207° Southwest 366 421 36,000  Level FlightAware ADS-B
05:26PM 36.5274 -83.5000 207° Southwest 365 420 36,000  Level FlightAware ADS-B
05:27PM 36.4811 -83.5295 207° Southwest 367 422 36,000  Level FlightAware ADS-B
05:27PM 36.4354 -83.5587 207° Southwest 368 423 36,000  Level FlightAware ADS-B
05:28PM 36.3879 -83.5889 207° Southwest 368 423 36,000  Level FlightAware ADS-B
05:28PM 36.3418 -83.6182 207° Southwest 367 422 36,000  Level FlightAware ADS-B
05:29PM 36.2961 -83.6473 207° Southwest 367 422 36,000  Level FlightAware ADS-B
05:29PM 36.2501 -83.6766 207° Southwest 368 423 36,000  Level FlightAware ADS-B
05:30PM 36.2020 -83.7072 207° Southwest 368 423 36,000  Level FlightAware ADS-B
05:30PM 36.1561 -83.7362 207° Southwest 369 425 36,000  Level FlightAware ADS-B
05:31PM 36.1065 -83.7677 207° Southwest 370 426 36,000  Level FlightAware ADS-B
05:31PM 36.0597 -83.7972 207° Southwest 370 426 36,000  Level FlightAware ADS-B
05:32PM 36.0129 -83.8267 207° Southwest 369 425 36,000  Level FlightAware ADS-B
05:32PM 35.9661 -83.8561 207° Southwest 371 427 36,000  Level FlightAware ADS-B
05:33PM 35.9328 -83.8760 206° Southwest 373 429 36,000  Level FlightAware ADS-B
05:33PM 35.8816 -83.8979 199° South 383 441 36,000  Level FlightAware ADS-B
05:34PM 35.8285 -83.9122 192° South 390 449 36,000  Level FlightAware ADS-B
05:34PM 35.7736 -83.9259 191° South 388 447 36,000  Level FlightAware ADS-B
05:35PM 35.7204 -83.9393 192° South 388 447 36,000  Level FlightAware ADS-B
05:35PM 35.6651 -83.9529 191° South 385 443 36,000  Level FlightAware ADS-B
05:36PM 35.6101 -83.9663 191° South 382 440 36,000  Level FlightAware ADS-B
05:36PM 35.5571 -83.9791 191° South 381 438 36,000  Level FlightAware ADS-B
05:37PM 35.5055 -83.9916 191° South 374 430 36,000  Level FlightAware ADS-B
05:37PM 35.4413 -84.0071 191° South 373 429 36,000  Level FlightAware ADS-B
05:38PM 35.3850 -84.0207 191° South 376 433 36,000  Level FlightAware ADS-B
05:39PM 35.2999 -84.0412 191° South 376 433 36,000  Level FlightAware ADS-B
05:39PM 35.2476 -84.0538 191° South 375 432 36,000  Level FlightAware ADS-B
05:40PM 35.1958 -84.0663 191° South 374 430 36,000  Level FlightAware ADS-B
05:40PM 35.1365 -84.0805 191° South 375 432 36,000  Level FlightAware ADS-B
05:41PM 35.0849 -84.0928 191° South 374 430 36,000  Level FlightAware ADS-B
05:41PM 35.0325 -84.1053 191° South 373 429 36,000  Level FlightAware ADS-B
05:42PM 34.9807 -84.1176 191° South 374 430 36,000  Level FlightAware ADS-B
05:42PM 34.9281 -84.1302 191° South 375 432 36,000  Level FlightAware ADS-B
05:43PM 34.8774 -84.1423 191° South 376 433 36,000  Level FlightAware ADS-B
05:43PM 34.8239 -84.1550 191° South 378 435 36,000  Level FlightAware ADS-B
05:44PM 34.7706 -84.1677 191° South 381 438 36,000  Level FlightAware ADS-B
05:44PM 34.7173 -84.1804 191° South 383 441 36,000  Level FlightAware ADS-B
05:45PM 34.6353 -84.1998 191° South 384 442 36,000  Level FlightAware ADS-B
05:46PM 34.5820 -84.2124 191° South 385 443 36,000  Level FlightAware ADS-B
05:46PM 34.5295 -84.2249 191° South 383 441 36,000  Level FlightAware ADS-B
05:47PM 34.4769 -84.2373 191° South 382 440 36,000  Level FlightAware ADS-B
05:47PM 34.4242 -84.2497 191° South 380 437 36,000  Level FlightAware ADS-B
05:48PM 34.3718 -84.2620 191° South 380 437 36,000  Level FlightAware ADS-B
05:48PM 34.3122 -84.2760 191° South 380 437 36,000 240 Level FlightAware ADS-B
05:49PM 34.2521 -84.2901 191° South 380 437 36,300 480 Climbing FlightAware ADS-B
05:49PM 34.1924 -84.3041 191° South 380 437 36,600 420 Climbing FlightAware ADS-B
05:50PM 34.0969 -84.3264 191° South 394 453 37,000 240 Climbing FlightAware ADS-B
05:51PM 34.0399 -84.3397 191° South 393 452 37,000  Level FlightAware ADS-B
05:51PM 33.9782 -84.3540 191° South 390 449 37,000  Level FlightAware ADS-B
05:52PM 33.9224 -84.3670 191° South 393 452 37,000  Level FlightAware ADS-B
05:53PM 33.8623 -84.3811 191° South 395 455 37,000  Level FlightAware ADS-B
05:53PM 33.8079 -84.3937 191° South 394 453 37,000  Level FlightAware ADS-B
05:54PM 33.7536 -84.4063 191° South 394 453 37,000  Level FlightAware ADS-B
05:54PM 33.6969 -84.4194 191° South 393 452 37,000  Level FlightAware ADS-B
05:54PM 33.6590 -84.4279 191° South 396 456 37,000  Level FlightAware ADS-B
05:55PM 33.6038 -84.4338 185° South 406 467 37,000  Level FlightAware ADS-B
05:55PM 33.5435 -84.4329 179° South 413 475 37,000  Level FlightAware ADS-B
05:56PM 33.4874 -84.4319 179° South 411 473 37,000  Level FlightAware ADS-B
05:57PM 33.3458 -84.4293 179° South 410 472 37,000  Level FlightAware ADS-B
05:58PM 33.2886 -84.4281 179° South 408 470 37,000  Level FlightAware ADS-B
05:59PM 33.1626 -84.4255 179° South 406 467 37,000  Level FlightAware ADS-B
06:00PM 33.0620 -84.4230 179° South 405 466 37,000  Level FlightAware
06:00PM 32.9900 -84.4220 179° South 406 467 37,000  Level FlightAware
06:01PM 32.9420 -84.4210 179° South 407 468 37,000  Level FlightAware
06:01PM 32.8850 -84.4200 179° South 407 468 37,000  Level FlightAware
06:02PM 32.8320 -84.4190 179° South 409 471 37,000  Level FlightAware
06:03PM 32.7060 -84.4160 179° South 410 472 37,000  Level FlightAware
06:03PM 32.6600 -84.4150 179° South 410 472 37,000  Level FlightAware
06:04PM 32.5710 -84.4140 179° South 411 473 37,000  Level FlightAware
06:05PM 32.4250 -84.4110 179° South 416 479 37,000  Level FlightAware
06:06PM 32.3520 -84.4090 179° South 417 480 37,000  Level FlightAware
06:07PM 32.2890 -84.4080 179° South 418 481 37,000  Level FlightAware
06:07PM 32.2070 -84.4060 179° South 418 481 37,000  Level FlightAware
06:08PM 32.1260 -84.4050 179° South 417 480 37,000  Level FlightAware
06:09PM 32.0420 -84.4030 179° South 416 479 37,000  Level FlightAware
06:09PM 31.9720 -84.4020 179° South 415 478 37,000  Level FlightAware
06:10PM 31.9160 -84.4010 179° South 415 478 37,000  Level FlightAware
06:10PM 31.8310 -84.3990 179° South 417 480 37,000  Level FlightAware
06:12PM 31.6760 -84.3960 179° South 417 480 37,000  Level FlightAware
06:12PM 31.6250 -84.3950 179° South 416 479 37,000  Level FlightAware
06:13PM 31.5380 -84.3930 179° South 416 479 37,000  Level FlightAware
06:14PM 31.4160 -84.3910 179° South 415 478 37,000  Level FlightAware
06:15PM 31.3580 -84.3900 179° South 415 478 37,000  Level FlightAware
06:15PM 31.3040 -84.3890 179° South 415 478 37,000  Level FlightAware
06:16PM 31.2350 -84.3860 178° South 419 482 37,000  Level FlightAware
06:16PM 31.1770 -84.3650 163° South 446 513 37,000  Level FlightAware
06:17PM 31.0750 -84.3070 154° Southeast 445 512 37,000  Level FlightAware
06:18PM 30.9930 -84.2640 156° South 440 506 37,000  Level FlightAware
06:18PM 30.9157 -84.2231 156° South 441 507 37,000  Level FlightAware ADS-B (KTLH)
06:19PM 30.8374 -84.1818 156° South 444 511 37,000  Level FlightAware ADS-B (KTLH)
06:21PM 30.6810 -84.0990 156° South 448 516 37,000  Level FlightAware
06:21PM 30.6050 -84.0590 156° South 446 513 37,000  Level FlightAware
06:22PM 30.4930 -84.0010 156° South 444 511 37,000  Level FlightAware
06:23PM 30.4480 -83.9770 155° Southeast 444 511 37,000  Level FlightAware
06:24PM 30.3420 -83.9220 156° South 444 511 37,000  Level FlightAware
06:24PM 30.2390 -83.8680 156° South 444 511 37,000  Level FlightAware
06:25PM 30.1814 -83.8381 156° South 444 511 37,000  Level FlightAware ADS-B (KTLH)
06:26PM 30.0620 -83.7760 156° South 445 512 37,000  Level FlightAware
06:27PM 29.9790 -83.7330 156° South 446 513 37,000  Level FlightAware
06:27PM 29.9340 -83.7100 156° South 447 514 37,000  Level FlightAware
06:28PM 29.8300 -83.6560 156° South 447 514 37,000  Level FlightAware
06:29PM 29.7420 -83.6110 156° South 446 513 37,000  Level FlightAware
06:29PM 29.6970 -83.5870 155° Southeast 443 510 37,000  Level FlightAware
06:30PM 29.5910 -83.5330 156° South 440 506 37,000  Level FlightAware
06:31PM 29.4900 -83.4810 156° South 438 504 37,000  Level FlightAware
06:32PM 29.3910 -83.4300 156° South 438 504 37,000  Level FlightAware
06:33PM 29.3190 -83.3940 156° South 439 505 37,000  Level FlightAware
06:33PM 29.2320 -83.3490 156° South 441 507 37,000  Level FlightAware
06:34PM 29.1540 -83.3100 156° South 441 507 37,000  Level FlightAware
06:35PM 29.0770 -83.2700 156° South 442 509 37,000  Level FlightAware
06:35PM 29.0230 -83.2430 156° South 443 510 37,000  Level FlightAware
06:36PM 28.9340 -83.1980 156° South 442 509 37,000  Level FlightAware
06:37PM 28.8530 -83.1570 156° South 442 509 37,000  Level FlightAware
06:38PM 28.7470 -83.1040 156° South 440 506 37,000  Level FlightAware
06:39PM 28.6472 -83.0534 156° South 443 510 37,000  Level FlightAware ADS-B (KMCO)
06:39PM 28.5770 -83.0180 156° South 444 511 37,000  Level FlightAware
06:40PM 28.5000 -82.9790 156° South 445 512 37,000  Level FlightAware
06:40PM 28.4470 -82.9530 157° South 445 512 37,000  Level FlightAware
06:41PM 28.3320 -82.8960 156° South 445 512 37,000  Level FlightAware
06:42PM 28.2270 -82.8430 156° South 445 512 37,000  Level FlightAware
06:43PM 28.1360 -82.7980 156° South 448 516 37,000  Level FlightAware
06:44PM 28.0410 -82.7500 156° South 450 518 37,000  Level FlightAware
06:45PM 27.9620 -82.7110 156° South 451 519 37,000  Level FlightAware
06:45PM 27.9000 -82.6790 155° Southeast 453 521 37,000  Level FlightAware
06:46PM 27.8278 -82.6314 150° Southeast 459 528 37,000  Level FlightAware ADS-B (KMCO)
06:46PM 27.7715 -82.5932 149° Southeast 458 527 37,000  Level FlightAware ADS-B (KMCO)
06:47PM 27.6848 -82.5354 149° Southeast 459 528 37,000  Level FlightAware ADS-B (KMCO)
06:48PM 27.5923 -82.4738 149° Southeast 460 529 37,000  Level FlightAware ADS-B (KMCO)
06:49PM 27.5308 -82.4331 150° Southeast 461 531 37,000  Level FlightAware ADS-B (KMCO)
06:49PM 27.4794 -82.3990 150° Southeast 462 532 37,000  Level FlightAware ADS-B (KMCO)
06:50PM 27.4012 -82.3474 150° Southeast 464 534 37,000  Level FlightAware ADS-B (KMCO)
06:50PM 27.3431 -82.3089 149° Southeast 465 535 37,000  Level FlightAware ADS-B (KMCO)
06:51PM 27.2658 -82.2577 149° Southeast 467 537 37,000  Level FlightAware ADS-B (KMCO)
06:52PM 27.2030 -82.2162 150° Southeast 467 537 37,000  Level FlightAware ADS-B (KMCO)
06:52PM 27.1396 -82.1744 150° Southeast 465 535 37,000  Level FlightAware ADS-B (KMCO)
06:53PM 27.0790 -82.1340 149° Southeast 464 534 37,000  Level FlightAware
06:53PM 26.9940 -82.0790 150° Southeast 463 533 37,000  Level FlightAware
06:54PM 26.9565 -82.0541 149° Southeast 464 534 37,000  Level FlightAware ADS-B (KMCO)
06:54PM 26.8914 -82.0115 150° Southeast 466 536 37,000  Level FlightAware ADS-B (KMCO)
06:55PM 26.8300 -81.9713 150° Southeast 465 535 37,000  Level FlightAware ADS-B (KMCO)
06:56PM 26.7065 -81.8905 150° Southeast 461 531 37,000  Level FlightAware ADS-B (KMCO)
06:57PM 26.5880 -81.8210 152° Southeast 446 513 37,000  Level FlightAware
06:58PM 26.5260 -81.8080 169° South 448 516 37,000  Level FlightAware
06:58PM 26.4191 -81.7827 168° South 451 519 37,000  Level FlightAware ADS-B (KMCO)
06:59PM 26.3379 -81.7633 168° South 452 520 37,000  Level FlightAware ADS-B (KMCO)
07:01PM 26.1511 -81.7188 168° South 451 519 37,000  Level FlightAware ADS-B (KMCO)
07:01PM 26.0770 -81.7010 168° South 443 510 37,000  Level FlightAware
07:02PM 25.9830 -81.6790 168° South 444 511 37,000  Level FlightAware
07:05PM 25.7058 -81.7481 161° South  Level Estimated
07:06PM 25.6110 -81.6787 147° Southeast  Level FlightAware Approximate
07:07PM 25.5162 -81.6093 147° Southeast  Level FlightAware Approximate
07:08PM 25.4213 -81.5401 147° Southeast  Level FlightAware Approximate
07:09PM 25.3263 -81.4709 147° Southeast  Level FlightAware Approximate
07:10PM 25.2314 -81.4019 147° Southeast  Level FlightAware Approximate
07:11PM 25.1364 -81.3330 147° Southeast  Level FlightAware Approximate
07:12PM 25.0414 -81.2642 147° Southeast  Level FlightAware Approximate
07:13PM 24.9464 -81.1955 147° Southeast  Level FlightAware Approximate
07:14PM 24.8477 -81.2577 165° South  Level Estimated
07:15PM 24.7491 -81.3198 189° South  Level Estimated
07:16PM 24.6578 -81.2452 143° Southeast  Level FlightAware Approximate
07:17PM 24.5623 -81.3129 200° South  Level Estimated
07:18PM 24.4667 -81.3804 180° South  Level Estimated
07:19PM 24.3711 -81.4478 187° South  Level Estimated
07:20PM 24.2862 -81.3649 138° Southeast  Level FlightAware Approximate
07:21PM 24.1950 -81.4392 205° Southwest  Level Estimated
07:22PM 24.1038 -81.5134 225° Southwest  Level Estimated
07:23PM 24.0125 -81.5875 225° Southwest  Level Estimated
07:24PM 23.9037 -81.6233 197° South  Level FlightAware Approximate
07:25PM 23.7948 -81.6590 197° South  Level FlightAware Approximate
07:26PM 23.6860 -81.6946 197° South  Level FlightAware Approximate
07:27PM 23.5771 -81.7302 197° South  Level FlightAware Approximate
07:28PM 23.4993 -81.8206 231° Southwest  Level Estimated
07:29PM 23.4215 -81.9108 228° Southwest  Level Estimated
07:30PM 23.3381 -81.9949 223° Southwest  Level FlightAware Approximate
07:31PM 23.2614 -82.0862 226° Southwest  Level Estimated
07:32PM 23.1847 -82.1774 212° Southwest  Level Estimated
07:33PM 23.1079 -82.2685 231° Southwest  Level Estimated
07:34PM 23.0311 -82.3595 223° Southwest  Level Estimated
07:35PM 22.9891 -82.4091 223° Southwest  Level Estimated
07:36PM 22.9891 -82.4091 223° Southwest  Level Estimated
07:37PM 22.9891 -82.4091 223° Southwest  Level Estimated
07:38PM 22.9891 -82.4091 223° Southwest  Level Estimated
07:39PM 22.9891 -82.4091 223° Southwest  Level Estimated
07:40PM 22.9891 -82.4091 223° Southwest  Level Estimated
07:41PM 22.9891 -82.4091 223° Southwest  Level Estimated
07:42PM 22.9891 -82.4091 223° Southwest  Level Estimated
07:43PM 22.9891 -82.4091 223° Southwest  Level Estimated
07:44PM 22.9891 -82.4091 223° Southwest  Level Estimated
07:45PM 22.9891 -82.4091 223° Southwest  Level Estimated
07:46PM 22.9891 -82.4091 223° Southwest  Level Estimated
07:47PM 22.9891 -82.4091 223° Southwest  Level Estimated
07:48PM 22.9891 -82.4091 223° Southwest  Level Estimated
07:49PM 22.9891 -82.4091 223° Southwest  Level Estimated
07:50PM 22.9891 -82.4091 223° Southwest  Level Estimated
07:51PM 22.9891 -82.4091 223° Southwest  Level Estimated
07:52PM 22.9891 -82.4091 223° Southwest  Level Estimated
07:53PM 22.9891 -82.4091 223° Southwest  Level Estimated
07:54PM 22.9891 -82.4091 223° Southwest  Level Estimated
07:55PM 22.9891 -82.4091 223° Southwest  Level Estimated